
Distance (Route):
Temperature : 0°C
Humidity : 0%
Pressure : 0hPa| Receiver | Frames | First received | Last received |
|---|---|---|---|
| MIELECB | 309 | 2026-09-05 11:23:42 | 2026-09-05 12:05:30 |
| SQ9PSP-11 | 146 | 2026-09-05 11:19:12 | 2026-09-05 12:05:28 |
| AKAW68 | 91 | 2026-09-05 11:20:12 | 2026-09-05 12:05:08 |
| AKAW682 | 77 | 2026-09-05 11:26:40 | 2026-09-05 12:04:59 |
| SQ9EZE-12 | 52 | 2026-09-05 11:21:26 | 2026-09-05 11:50:43 |
| GYPAP8-17 | 17 | 2026-09-05 11:46:02 | 2026-09-05 12:05:25 |
| SP9KGR-15 | 5 | 2026-09-05 11:41:06 | 2026-09-05 11:46:22 |
| OE3JTB-15 | 4 | 2026-09-05 11:44:03 | 2026-09-05 11:49:56 |
| SQ9EZE-14 | 1 | 2026-09-05 11:22:21 | 2026-09-05 11:22:21 |
| Receiver | Date | Latitude | Longitude | Direction | Speed | Altitude | Climb | Temperature | Humidity | Pressure | Voltage | Killtimer | Uptime | BKT | XDATA |
|---|---|---|---|---|---|---|---|---|---|---|---|---|---|---|---|
| MIELECB | 2026-09-05 12:05:30 | 50.07009 | 22.21195 | 77° | 71km/h | 16957m | 3.0m/s | 0°C | 0% | 0hPa | 0V | 00:00:00 | 00:00:00 | 00:00:00 | |
| SQ9PSP-11 | 2026-09-05 12:05:28 | 50.07001 | 22.21143 | 76° | 73km/h | 16950m | 4.6m/s | 0°C | 0% | 0hPa | 0V | 00:00:00 | 00:00:00 | 00:00:00 | |
| GYPAP8-17 | 2026-09-05 12:05:25 | 50.06988 | 22.21061 | 76° | 69km/h | 16940m | 4.5m/s | 0°C | 0% | 0hPa | 0V | 00:00:00 | 00:00:00 | 00:00:00 | |
| MIELECB | 2026-09-05 12:05:22 | 50.06979 | 22.20981 | 86° | 75km/h | 16926m | 5.1m/s | 0°C | 0% | 0hPa | 0V | 00:00:00 | 00:00:00 | 00:00:00 | |
| MIELECB | 2026-09-05 12:05:17 | 50.06962 | 22.20831 | 81° | 71km/h | 16904m | 7.2m/s | 0°C | 0% | 0hPa | 0V | 00:00:00 | 00:00:00 | 00:00:00 | |
| SQ9PSP-11 | 2026-09-05 12:05:13 | 50.06950 | 22.20713 | 80° | 75km/h | 16880m | 4.6m/s | 0°C | 0% | 0hPa | 0V | 00:00:00 | 00:00:00 | 00:00:00 | |
| MIELECB | 2026-09-05 12:05:11 | 50.06943 | 22.20655 | 79° | 78km/h | 16869m | 5.1m/s | 0°C | 0% | 0hPa | 0V | 00:00:00 | 00:00:00 | 00:00:00 | |
| AKAW68 | 2026-09-05 12:05:08 | 50.06933 | 22.20569 | 87° | 77km/h | 16857m | 2.3m/s | 0°C | 0% | 0hPa | 0V | 00:00:00 | 00:00:00 | 00:00:00 | |
| MIELECB | 2026-09-05 12:05:05 | 50.06924 | 22.20483 | 77° | 71km/h | 16845m | 4.8m/s | 0°C | 0% | 0hPa | 0V | 00:00:00 | 00:00:00 | 00:00:00 | |
| AKAW682 | 2026-09-05 12:04:59 | 50.06901 | 22.20325 | 76° | 66km/h | 16819m | 4.4m/s | 0°C | 0% | 0hPa | 0V | 00:00:00 | 00:00:00 | 00:00:00 | |
| MIELECB | 2026-09-05 12:04:58 | 50.06898 | 22.20299 | 80° | 68km/h | 16814m | 3.5m/s | 0°C | 0% | 0hPa | 0V | 00:00:00 | 00:00:00 | 00:00:00 | |
| SQ9PSP-11 | 2026-09-05 12:04:54 | 50.06882 | 22.20187 | 78° | 75km/h | 16801m | 3.0m/s | 0°C | 0% | 0hPa | 0V | 00:00:00 | 00:00:00 | 00:00:00 | |
| MIELECB | 2026-09-05 12:04:44 | 50.06845 | 22.19906 | 80° | 75km/h | 16766m | 5.2m/s | 0°C | 0% | 0hPa | 0V | 00:00:00 | 00:00:00 | 00:00:00 | |
| MIELECB | 2026-09-05 12:04:35 | 50.06810 | 22.19664 | 77° | 78km/h | 16721m | 5.2m/s | 0°C | 0% | 0hPa | 0V | 00:00:00 | 00:00:00 | 00:00:00 | |
| SQ9PSP-11 | 2026-09-05 12:04:34 | 50.06805 | 22.19635 | 75° | 77km/h | 16716m | 5.9m/s | 0°C | 0% | 0hPa | 0V | 00:00:00 | 00:00:00 | 00:00:00 | |
| AKAW68 | 2026-09-05 12:04:31 | 50.06793 | 22.19550 | 79° | 73km/h | 16702m | 7.1m/s | 0°C | 0% | 0hPa | 0V | 00:00:00 | 00:00:00 | 00:00:00 | |
| MIELECB | 2026-09-05 12:04:29 | 50.06784 | 22.19492 | 77° | 75km/h | 16689m | 6.5m/s | 0°C | 0% | 0hPa | 0V | 00:00:00 | 00:00:00 | 00:00:00 | |
| MIELECB | 2026-09-05 12:04:21 | 50.06740 | 22.19282 | 70° | 68km/h | 16648m | 7.4m/s | 0°C | 0% | 0hPa | 0V | 00:00:00 | 00:00:00 | 00:00:00 | |
| SQ9PSP-11 | 2026-09-05 12:04:13 | 50.06696 | 22.19075 | 74° | 64km/h | 16610m | 2.7m/s | 0°C | 0% | 0hPa | 0V | 00:00:00 | 00:00:00 | 00:00:00 | |
| MIELECB | 2026-09-05 12:03:57 | 50.06602 | 22.18680 | 68° | 75km/h | 16550m | 4.2m/s | 0°C | 0% | 0hPa | 0V | 00:00:00 | 00:00:00 | 00:00:00 | |
| SQ9PSP-11 | 2026-09-05 12:03:52 | 50.06571 | 22.18567 | 65° | 57km/h | 16533m | 6.4m/s | 0°C | 0% | 0hPa | 0V | 00:00:00 | 00:00:00 | 00:00:00 | |
| AKAW68 | 2026-09-05 12:03:50 | 50.06558 | 22.18522 | 71° | 62km/h | 16524m | 6.4m/s | 0°C | 0% | 0hPa | 0V | 00:00:00 | 00:00:00 | 00:00:00 | |
| MIELECB | 2026-09-05 12:03:49 | 50.06553 | 22.18498 | 70° | 62km/h | 16519m | 6.0m/s | 0°C | 0% | 0hPa | 0V | 00:00:00 | 00:00:00 | 00:00:00 | |
| MIELECB | 2026-09-05 12:03:33 | 50.06463 | 22.18147 | 69° | 53km/h | 16444m | 6.8m/s | 0°C | 0% | 0hPa | 0V | 00:00:00 | 00:00:00 | 00:00:00 | |
| MIELECB | 2026-09-05 12:03:19 | 50.06383 | 22.17844 | 70° | 57km/h | 16378m | 6.6m/s | 0°C | 0% | 0hPa | 0V | 00:00:00 | 00:00:00 | 00:00:00 | |
| SQ9PSP-11 | 2026-09-05 12:03:14 | 50.06359 | 22.17727 | 69° | 64km/h | 16359m | 4.7m/s | 0°C | 0% | 0hPa | 0V | 00:00:00 | 00:00:00 | 00:00:00 | |
| MIELECB | 2026-09-05 12:03:12 | 50.06348 | 22.17686 | 67° | 49km/h | 16349m | 5.5m/s | 0°C | 0% | 0hPa | 0V | 00:00:00 | 00:00:00 | 00:00:00 | |
| GYPAP8-17 | 2026-09-05 12:03:10 | 50.06339 | 22.17647 | 73° | 57km/h | 16338m | 5.6m/s | 0°C | 0% | 0hPa | 0V | 00:00:00 | 00:00:00 | 00:00:00 | |
| MIELECB | 2026-09-05 12:03:04 | 50.06305 | 22.17521 | 67° | 66km/h | 16307m | 5.2m/s | 0°C | 0% | 0hPa | 0V | 00:00:00 | 00:00:00 | 00:00:00 | |
| AKAW682 | 2026-09-05 12:02:53 | 50.06247 | 22.17301 | 77° | 55km/h | 16258m | 6.2m/s | 0°C | 0% | 0hPa | 0V | 00:00:00 | 00:00:00 | 00:00:00 | |
| SQ9PSP-11 | 2026-09-05 12:02:48 | 50.06220 | 22.17208 | 68° | 60km/h | 16228m | 4.3m/s | 0°C | 0% | 0hPa | 0V | 00:00:00 | 00:00:00 | 00:00:00 | |
| MIELECB | 2026-09-05 12:02:42 | 50.06197 | 22.17073 | 77° | 66km/h | 16206m | 7.3m/s | 0°C | 0% | 0hPa | 0V | 00:00:00 | 00:00:00 | 00:00:00 | |
| MIELECB | 2026-09-05 12:02:35 | 50.06178 | 22.16941 | 85° | 51km/h | 16168m | 5.9m/s | 0°C | 0% | 0hPa | 0V | 00:00:00 | 00:00:00 | 00:00:00 | |
| SQ9PSP-11 | 2026-09-05 12:02:32 | 50.06168 | 22.16877 | 74° | 58km/h | 16151m | 7.6m/s | 0°C | 0% | 0hPa | 0V | 00:00:00 | 00:00:00 | 00:00:00 | |
| MIELECB | 2026-09-05 12:02:29 | 50.06162 | 22.16812 | 86° | 57km/h | 16129m | 6.5m/s | 0°C | 0% | 0hPa | 0V | 00:00:00 | 00:00:00 | 00:00:00 | |
| MIELECB | 2026-09-05 12:02:22 | 50.06153 | 22.16646 | 78° | 69km/h | 16094m | 5.3m/s | 0°C | 0% | 0hPa | 0V | 00:00:00 | 00:00:00 | 00:00:00 | |
| MIELECB | 2026-09-05 12:02:16 | 50.06138 | 22.16497 | 87° | 60km/h | 16065m | 6.5m/s | 0°C | 0% | 0hPa | 0V | 00:00:00 | 00:00:00 | 00:00:00 | |
| SQ9PSP-11 | 2026-09-05 12:02:14 | 50.06138 | 22.16448 | 92° | 68km/h | 16053m | 4.2m/s | 0°C | 0% | 0hPa | 0V | 00:00:00 | 00:00:00 | 00:00:00 | |
| AKAW682 | 2026-09-05 12:02:12 | 50.06138 | 22.16397 | 85° | 66km/h | 16046m | 2.9m/s | 0°C | 0% | 0hPa | 0V | 00:00:00 | 00:00:00 | 00:00:00 | |
| GYPAP8-17 | 2026-09-05 12:02:08 | 50.06132 | 22.16293 | 86° | 62km/h | 16033m | 4.9m/s | 0°C | 0% | 0hPa | 0V | 00:00:00 | 00:00:00 | 00:00:00 | |
| MIELECB | 2026-09-05 12:02:07 | 50.06130 | 22.16269 | 82° | 64km/h | 16030m | 5.9m/s | 0°C | 0% | 0hPa | 0V | 00:00:00 | 00:00:00 | 00:00:00 | |
| MIELECB | 2026-09-05 12:02:02 | 50.06129 | 22.16146 | 85° | 66km/h | 16002m | 7.7m/s | 0°C | 0% | 0hPa | 0V | 00:00:00 | 00:00:00 | 00:00:00 | |
| SQ9PSP-11 | 2026-09-05 12:01:59 | 50.06127 | 22.16072 | 91° | 64km/h | 15984m | 5.0m/s | 0°C | 0% | 0hPa | 0V | 00:00:00 | 00:00:00 | 00:00:00 | |
| MIELECB | 2026-09-05 12:01:52 | 50.06125 | 22.15884 | 88° | 68km/h | 15946m | 6.8m/s | 0°C | 0% | 0hPa | 0V | 00:00:00 | 00:00:00 | 00:00:00 | |
| MIELECB | 2026-09-05 12:01:47 | 50.06128 | 22.15748 | 92° | 69km/h | 15920m | 4.0m/s | 0°C | 0% | 0hPa | 0V | 00:00:00 | 00:00:00 | 00:00:00 | |
| SQ9PSP-11 | 2026-09-05 12:01:43 | 50.06131 | 22.15635 | 96° | 71km/h | 15901m | 4.8m/s | 0°C | 0% | 0hPa | 0V | 00:00:00 | 00:00:00 | 00:00:00 | |
| MIELECB | 2026-09-05 12:01:41 | 50.06133 | 22.15580 | 89° | 69km/h | 15891m | 4.8m/s | 0°C | 0% | 0hPa | 0V | 00:00:00 | 00:00:00 | 00:00:00 | |
| AKAW68 | 2026-09-05 12:01:38 | 50.06135 | 22.15492 | 95° | 78km/h | 15876m | 4.2m/s | 0°C | 0% | 0hPa | 0V | 00:00:00 | 00:00:00 | 00:00:00 | |
| MIELECB | 2026-09-05 12:01:35 | 50.06141 | 22.15376 | 99° | 71km/h | 15859m | 5.1m/s | 0°C | 0% | 0hPa | 0V | 00:00:00 | 00:00:00 | 00:00:00 | |
| SQ9PSP-11 | 2026-09-05 12:01:27 | 50.06152 | 22.15170 | 95° | 86km/h | 15826m | 6.0m/s | 0°C | 0% | 0hPa | 0V | 00:00:00 | 00:00:00 | 00:00:00 | |
| MIELECB | 2026-09-05 12:01:21 | 50.06163 | 22.14983 | 93° | 84km/h | 15791m | 4.4m/s | 0°C | 0% | 0hPa | 0V | 00:00:00 | 00:00:00 | 00:00:00 | |
| MIELECB | 2026-09-05 12:01:14 | 50.06173 | 22.14747 | 96° | 89km/h | 15756m | 5.8m/s | 0°C | 0% | 0hPa | 0V | 00:00:00 | 00:00:00 | 00:00:00 | |
| SQ9PSP-11 | 2026-09-05 12:01:11 | 50.06180 | 22.14638 | 94° | 93km/h | 15741m | 6.4m/s | 0°C | 0% | 0hPa | 0V | 00:00:00 | 00:00:00 | 00:00:00 | |
| MIELECB | 2026-09-05 12:01:08 | 50.06183 | 22.14534 | 96° | 84km/h | 15724m | 6.9m/s | 0°C | 0% | 0hPa | 0V | 00:00:00 | 00:00:00 | 00:00:00 | |
| AKAW68 | 2026-09-05 12:01:07 | 50.06185 | 22.14501 | 97° | 86km/h | 15718m | 7.0m/s | 0°C | 0% | 0hPa | 0V | 00:00:00 | 00:00:00 | 00:00:00 | |
| GYPAP8-17 | 2026-09-05 12:01:04 | 50.06191 | 22.14403 | 97° | 88km/h | 15701m | 5.0m/s | 0°C | 0% | 0hPa | 0V | 00:00:00 | 00:00:00 | 00:00:00 | |
| MIELECB | 2026-09-05 12:01:02 | 50.06194 | 22.14335 | 93° | 88km/h | 15691m | 5.9m/s | 0°C | 0% | 0hPa | 0V | 00:00:00 | 00:00:00 | 00:00:00 | |
| AKAW682 | 2026-09-05 12:00:57 | 50.06200 | 22.14171 | 97° | 84km/h | 15667m | 6.2m/s | 0°C | 0% | 0hPa | 0V | 00:00:00 | 00:00:00 | 00:00:00 | |
| MIELECB | 2026-09-05 12:00:55 | 50.06203 | 22.14104 | 96° | 88km/h | 15656m | 4.8m/s | 0°C | 0% | 0hPa | 0V | 00:00:00 | 00:00:00 | 00:00:00 | |
| SQ9PSP-11 | 2026-09-05 12:00:54 | 50.06205 | 22.14070 | 95° | 86km/h | 15652m | 5.1m/s | 0°C | 0% | 0hPa | 0V | 00:00:00 | 00:00:00 | 00:00:00 | |
| AKAW68 | 2026-09-05 12:00:46 | 50.06209 | 22.13801 | 95° | 80km/h | 15613m | 5.7m/s | 0°C | 0% | 0hPa | 0V | 00:00:00 | 00:00:00 | 00:00:00 | |
| MIELECB | 2026-09-05 12:00:43 | 50.06215 | 22.13703 | 93° | 84km/h | 15596m | 6.2m/s | 0°C | 0% | 0hPa | 0V | 00:00:00 | 00:00:00 | 00:00:00 | |
| SQ9PSP-11 | 2026-09-05 12:00:38 | 50.06213 | 22.13536 | 87° | 80km/h | 15575m | 5.9m/s | 0°C | 0% | 0hPa | 0V | 00:00:00 | 00:00:00 | 00:00:00 | |
| AKAW682 | 2026-09-05 12:00:36 | 50.06211 | 22.13475 | 91° | 77km/h | 15566m | 5.7m/s | 0°C | 0% | 0hPa | 0V | 00:00:00 | 00:00:00 | 00:00:00 | |
| MIELECB | 2026-09-05 12:00:31 | 50.06212 | 22.13308 | 89° | 89km/h | 15541m | 3.9m/s | 0°C | 0% | 0hPa | 0V | 00:00:00 | 00:00:00 | 00:00:00 | |
| MIELECB | 2026-09-05 12:00:24 | 50.06208 | 22.13064 | 92° | 89km/h | 15510m | 4.3m/s | 0°C | 0% | 0hPa | 0V | 00:00:00 | 00:00:00 | 00:00:00 | |
| SQ9PSP-11 | 2026-09-05 12:00:22 | 50.06207 | 22.12994 | 89° | 89km/h | 15502m | 3.8m/s | 0°C | 0% | 0hPa | 0V | 00:00:00 | 00:00:00 | 00:00:00 | |
| MIELECB | 2026-09-05 12:00:19 | 50.06205 | 22.12776 | 93° | 93km/h | 15476m | 5.6m/s | 0°C | 0% | 0hPa | 0V | 00:00:00 | 00:00:00 | 00:00:00 | |
| AKAW682 | 2026-09-05 12:00:11 | 50.06207 | 22.12578 | 91° | 108km/h | 15453m | 5.3m/s | 0°C | 0% | 0hPa | 0V | 00:00:00 | 00:00:00 | 00:00:00 | |
| SQ9PSP-11 | 2026-09-05 12:00:06 | 50.06206 | 22.12367 | 91° | 108km/h | 15433m | 6.3m/s | 0°C | 0% | 0hPa | 0V | 00:00:00 | 00:00:00 | 00:00:00 | |
| MIELECB | 2026-09-05 12:00:04 | 50.06206 | 22.12284 | 92° | 104km/h | 15426m | 4.6m/s | 0°C | 0% | 0hPa | 0V | 00:00:00 | 00:00:00 | 00:00:00 | |
| MIELECB | 2026-09-05 11:59:56 | 50.06199 | 22.11945 | 88° | 117km/h | 15398m | 5.3m/s | 0°C | 0% | 0hPa | 0V | 00:00:00 | 00:00:00 | 00:00:00 | |
| SQ9PSP-11 | 2026-09-05 11:59:51 | 50.06190 | 22.11719 | 89° | 113km/h | 15375m | 4.7m/s | 0°C | 0% | 0hPa | 0V | 00:00:00 | 00:00:00 | 00:00:00 | |
| AKAW682 | 2026-09-05 11:59:50 | 50.06189 | 22.11675 | 88° | 110km/h | 15372m | 2.9m/s | 0°C | 0% | 0hPa | 0V | 00:00:00 | 00:00:00 | 00:00:00 | |
| AKAW68 | 2026-09-05 11:59:35 | 50.06157 | 22.11020 | 85° | 113km/h | 15309m | 4.3m/s | 0°C | 0% | 0hPa | 0V | 00:00:00 | 00:00:00 | 00:00:00 | |
| AKAW682 | 2026-09-05 11:59:27 | 50.06130 | 22.10661 | 85° | 110km/h | 15283m | 4.8m/s | 0°C | 0% | 0hPa | 0V | 00:00:00 | 00:00:00 | 00:00:00 | |
| SQ9PSP-11 | 2026-09-05 11:59:19 | 50.06109 | 22.10322 | 85° | 104km/h | 15258m | 3.9m/s | 0°C | 0% | 0hPa | 0V | 00:00:00 | 00:00:00 | 00:00:00 | |
| MIELECB | 2026-09-05 11:59:12 | 50.06097 | 22.10035 | 89° | 111km/h | 15238m | 6.8m/s | 0°C | 0% | 0hPa | 0V | 00:00:00 | 00:00:00 | 00:00:00 | |
| AKAW682 | 2026-09-05 11:59:07 | 50.06087 | 22.09836 | 91° | 102km/h | 15218m | 4.7m/s | 0°C | 0% | 0hPa | 0V | 00:00:00 | 00:00:00 | 00:00:00 | |
| SQ9PSP-11 | 2026-09-05 11:59:02 | 50.06086 | 22.09625 | 90° | 108km/h | 15195m | 5.3m/s | 0°C | 0% | 0hPa | 0V | 00:00:00 | 00:00:00 | 00:00:00 | |
| GYPAP8-17 | 2026-09-05 11:58:58 | 50.06079 | 22.09461 | 88° | 102km/h | 15182m | 3.3m/s | 0°C | 0% | 0hPa | 0V | 00:00:00 | 00:00:00 | 00:00:00 | |
| AKAW68 | 2026-09-05 11:58:52 | 50.06071 | 22.09216 | 89° | 106km/h | 15166m | 3.0m/s | 0°C | 0% | 0hPa | 0V | 00:00:00 | 00:00:00 | 00:00:00 | |
| SQ9PSP-11 | 2026-09-05 11:58:46 | 50.06058 | 22.08965 | 86° | 108km/h | 15145m | 6.3m/s | 0°C | 0% | 0hPa | 0V | 00:00:00 | 00:00:00 | 00:00:00 | |
| SQ9PSP-11 | 2026-09-05 11:58:31 | 50.06012 | 22.08358 | 84° | 104km/h | 15082m | 2.8m/s | 0°C | 0% | 0hPa | 0V | 00:00:00 | 00:00:00 | 00:00:00 | |
| AKAW68 | 2026-09-05 11:58:28 | 50.06004 | 22.08237 | 86° | 102km/h | 15069m | 4.6m/s | 0°C | 0% | 0hPa | 0V | 00:00:00 | 00:00:00 | 00:00:00 | |
| MIELECB | 2026-09-05 11:58:10 | 50.05936 | 22.07520 | 80° | 106km/h | 14993m | 5.5m/s | 0°C | 0% | 0hPa | 0V | 00:00:00 | 00:00:00 | 00:00:00 | |
| SQ9PSP-11 | 2026-09-05 11:58:09 | 50.05931 | 22.07479 | 80° | 106km/h | 14988m | 3.2m/s | 0°C | 0% | 0hPa | 0V | 00:00:00 | 00:00:00 | 00:00:00 | |
| AKAW682 | 2026-09-05 11:58:05 | 50.05909 | 22.07316 | 81° | 102km/h | 14973m | 4.8m/s | 0°C | 0% | 0hPa | 0V | 00:00:00 | 00:00:00 | 00:00:00 | |
| MIELECB | 2026-09-05 11:58:04 | 50.05904 | 22.07278 | 81° | 97km/h | 14969m | 5.2m/s | 0°C | 0% | 0hPa | 0V | 00:00:00 | 00:00:00 | 00:00:00 | |
| AKAW68 | 2026-09-05 11:57:59 | 50.05876 | 22.07096 | 80° | 104km/h | 14946m | 4.1m/s | 0°C | 0% | 0hPa | 0V | 00:00:00 | 00:00:00 | 00:00:00 | |
| MIELECB | 2026-09-05 11:57:57 | 50.05865 | 22.07015 | 78° | 106km/h | 14936m | 3.8m/s | 0°C | 0% | 0hPa | 0V | 00:00:00 | 00:00:00 | 00:00:00 | |
| GYPAP8-17 | 2026-09-05 11:57:55 | 50.05855 | 22.06935 | 82° | 100km/h | 14928m | 4.5m/s | 0°C | 0% | 0hPa | 0V | 00:00:00 | 00:00:00 | 00:00:00 | |
| MIELECB | 2026-09-05 11:57:52 | 50.05838 | 22.06817 | 77° | 100km/h | 14915m | 5.0m/s | 0°C | 0% | 0hPa | 0V | 00:00:00 | 00:00:00 | 00:00:00 | |
| MIELECB | 2026-09-05 11:57:47 | 50.05803 | 22.06632 | 80° | 93km/h | 14895m | 8.7m/s | 0°C | 0% | 0hPa | 0V | 00:00:00 | 00:00:00 | 00:00:00 | |
| AKAW682 | 2026-09-05 11:57:42 | 50.05785 | 22.06447 | 80° | 104km/h | 14868m | 3.8m/s | 0°C | 0% | 0hPa | 0V | 00:00:00 | 00:00:00 | 00:00:00 | |
| MIELECB | 2026-09-05 11:57:40 | 50.05773 | 22.06368 | 79° | 102km/h | 14858m | 5.2m/s | 0°C | 0% | 0hPa | 0V | 00:00:00 | 00:00:00 | 00:00:00 | |
| SQ9PSP-11 | 2026-09-05 11:57:35 | 50.05744 | 22.06186 | 84° | 99km/h | 14831m | 4.9m/s | 0°C | 0% | 0hPa | 0V | 00:00:00 | 00:00:00 | 00:00:00 | |
| MIELECB | 2026-09-05 11:57:29 | 50.05721 | 22.05973 | 75° | 88km/h | 14798m | 7.2m/s | 0°C | 0% | 0hPa | 0V | 00:00:00 | 00:00:00 | 00:00:00 | |
| MIELECB | 2026-09-05 11:57:23 | 50.05698 | 22.05750 | 86° | 88km/h | 14766m | 8.4m/s | 0°C | 0% | 0hPa | 0V | 00:00:00 | 00:00:00 | 00:00:00 | |
| AKAW682 | 2026-09-05 11:57:22 | 50.05696 | 22.05716 | 82° | 89km/h | 14760m | 5.9m/s | 0°C | 0% | 0hPa | 0V | 00:00:00 | 00:00:00 | 00:00:00 | |
| MIELECB | 2026-09-05 11:57:17 | 50.05681 | 22.05536 | 84° | 97km/h | 14733m | 6.0m/s | 0°C | 0% | 0hPa | 0V | 00:00:00 | 00:00:00 | 00:00:00 | |
| SQ9PSP-11 | 2026-09-05 11:57:16 | 50.05677 | 22.05496 | 81° | 102km/h | 14726m | 9.7m/s | 0°C | 0% | 0hPa | 0V | 00:00:00 | 00:00:00 | 00:00:00 | |
| AKAW68 | 2026-09-05 11:57:15 | 50.05672 | 22.05456 | 81° | 104km/h | 14718m | 8.4m/s | 0°C | 0% | 0hPa | 0V | 00:00:00 | 00:00:00 | 00:00:00 | |
| MIELECB | 2026-09-05 11:57:12 | 50.05659 | 22.05345 | 80° | 93km/h | 14696m | 9.2m/s | 0°C | 0% | 0hPa | 0V | 00:00:00 | 00:00:00 | 00:00:00 | |
| MIELECB | 2026-09-05 11:57:06 | 50.05653 | 22.05118 | 85° | 104km/h | 14657m | 6.3m/s | 0°C | 0% | 0hPa | 0V | 00:00:00 | 00:00:00 | 00:00:00 | |
| MIELECB | 2026-09-05 11:57:01 | 50.05643 | 22.04927 | 94° | 97km/h | 14629m | 5.3m/s | 0°C | 0% | 0hPa | 0V | 00:00:00 | 00:00:00 | 00:00:00 | |
| SQ9PSP-11 | 2026-09-05 11:57:00 | 50.05644 | 22.04889 | 90° | 102km/h | 14626m | 3.4m/s | 0°C | 0% | 0hPa | 0V | 00:00:00 | 00:00:00 | 00:00:00 | |
| MIELECB | 2026-09-05 11:56:55 | 50.05626 | 22.04682 | 81° | 104km/h | 14595m | 6.9m/s | 0°C | 0% | 0hPa | 0V | 00:00:00 | 00:00:00 | 00:00:00 | |
| AKAW68 | 2026-09-05 11:56:54 | 50.05622 | 22.04643 | 82° | 100km/h | 14590m | 6.8m/s | 0°C | 0% | 0hPa | 0V | 00:00:00 | 00:00:00 | 00:00:00 | |
| GYPAP8-17 | 2026-09-05 11:56:52 | 50.05616 | 22.04568 | 89° | 95km/h | 14576m | 8.6m/s | 0°C | 0% | 0hPa | 0V | 00:00:00 | 00:00:00 | 00:00:00 | |
| MIELECB | 2026-09-05 11:56:50 | 50.05616 | 22.04489 | 92° | 102km/h | 14562m | 6.8m/s | 0°C | 0% | 0hPa | 0V | 00:00:00 | 00:00:00 | 00:00:00 | |
| SQ9PSP-11 | 2026-09-05 11:56:43 | 50.05587 | 22.04202 | 82° | 106km/h | 14519m | 5.8m/s | 0°C | 0% | 0hPa | 0V | 00:00:00 | 00:00:00 | 00:00:00 | |
| AKAW682 | 2026-09-05 11:56:40 | 50.05579 | 22.04072 | 84° | 117km/h | 14505m | 6.0m/s | 0°C | 0% | 0hPa | 0V | 00:00:00 | 00:00:00 | 00:00:00 | |
| MIELECB | 2026-09-05 11:56:38 | 50.05564 | 22.03934 | 76° | 117km/h | 14482m | 9.0m/s | 0°C | 0% | 0hPa | 0V | 00:00:00 | 00:00:00 | 00:00:00 | |
| AKAW68 | 2026-09-05 11:56:32 | 50.05532 | 22.03723 | 83° | 106km/h | 14447m | 5.7m/s | 0°C | 0% | 0hPa | 0V | 00:00:00 | 00:00:00 | 00:00:00 | |
| MIELECB | 2026-09-05 11:56:31 | 50.05528 | 22.03682 | 80° | 108km/h | 14441m | 6.5m/s | 0°C | 0% | 0hPa | 0V | 00:00:00 | 00:00:00 | 00:00:00 | |
| MIELECB | 2026-09-05 11:56:26 | 50.05481 | 22.03457 | 75° | 117km/h | 14412m | 7.5m/s | 0°C | 0% | 0hPa | 0V | 00:00:00 | 00:00:00 | 00:00:00 | |
| SQ9PSP-11 | 2026-09-05 11:56:22 | 50.05449 | 22.03228 | 78° | 122km/h | 14381m | 5.8m/s | 0°C | 0% | 0hPa | 0V | 00:00:00 | 00:00:00 | 00:00:00 | |
| AKAW682 | 2026-09-05 11:56:20 | 50.05442 | 22.03180 | 78° | 126km/h | 14375m | 5.7m/s | 0°C | 0% | 0hPa | 0V | 00:00:00 | 00:00:00 | 00:00:00 | |
| MIELECB | 2026-09-05 11:56:15 | 50.05396 | 22.02936 | 70° | 126km/h | 14349m | 6.0m/s | 0°C | 0% | 0hPa | 0V | 00:00:00 | 00:00:00 | 00:00:00 | |
| AKAW68 | 2026-09-05 11:56:11 | 50.05363 | 22.02752 | 77° | 117km/h | 14323m | 7.3m/s | 0°C | 0% | 0hPa | 0V | 00:00:00 | 00:00:00 | 00:00:00 | |
| MIELECB | 2026-09-05 11:56:09 | 50.05344 | 22.02664 | 71° | 120km/h | 14311m | 7.2m/s | 0°C | 0% | 0hPa | 0V | 00:00:00 | 00:00:00 | 00:00:00 | |
| MIELECB | 2026-09-05 11:56:04 | 50.05295 | 22.02434 | 73° | 128km/h | 14279m | 5.0m/s | 0°C | 0% | 0hPa | 0V | 00:00:00 | 00:00:00 | 00:00:00 | |
| AKAW682 | 2026-09-05 11:55:58 | 50.05249 | 22.02156 | 76° | 106km/h | 14243m | 7.7m/s | 0°C | 0% | 0hPa | 0V | 00:00:00 | 00:00:00 | 00:00:00 | |
| MIELECB | 2026-09-05 11:55:53 | 50.05199 | 22.01943 | 73° | 122km/h | 14213m | 5.7m/s | 0°C | 0% | 0hPa | 0V | 00:00:00 | 00:00:00 | 00:00:00 | |
| SQ9PSP-11 | 2026-09-05 11:55:51 | 50.05180 | 22.01853 | 70° | 119km/h | 14200m | 8.8m/s | 0°C | 0% | 0hPa | 0V | 00:00:00 | 00:00:00 | 00:00:00 | |
| MIELECB | 2026-09-05 11:55:48 | 50.05149 | 22.01725 | 75° | 113km/h | 14182m | 6.9m/s | 0°C | 0% | 0hPa | 0V | 00:00:00 | 00:00:00 | 00:00:00 | |
| AKAW68 | 2026-09-05 11:55:41 | 50.05093 | 22.01429 | 72° | 115km/h | 14142m | 6.9m/s | 0°C | 0% | 0hPa | 0V | 00:00:00 | 00:00:00 | 00:00:00 | |
| GYPAP8-17 | 2026-09-05 11:55:40 | 50.05084 | 22.01386 | 72° | 115km/h | 14136m | 6.1m/s | 0°C | 0% | 0hPa | 0V | 00:00:00 | 00:00:00 | 00:00:00 | |
| AKAW682 | 2026-09-05 11:55:38 | 50.05067 | 22.01305 | 75° | 104km/h | 14123m | 7.1m/s | 0°C | 0% | 0hPa | 0V | 00:00:00 | 00:00:00 | 00:00:00 | |
| SQ9PSP-11 | 2026-09-05 11:55:36 | 50.05053 | 22.01229 | 75° | 99km/h | 14112m | 7.8m/s | 0°C | 0% | 0hPa | 0V | 00:00:00 | 00:00:00 | 00:00:00 | |
| MIELECB | 2026-09-05 11:55:31 | 50.05012 | 22.01032 | 72° | 106km/h | 14083m | 2.5m/s | 0°C | 0% | 0hPa | 0V | 00:00:00 | 00:00:00 | 00:00:00 | |
| MIELECB | 2026-09-05 11:55:25 | 50.04968 | 22.00808 | 74° | 99km/h | 14044m | 4.0m/s | 0°C | 0% | 0hPa | 0V | 00:00:00 | 00:00:00 | 00:00:00 | |
| MIELECB | 2026-09-05 11:55:20 | 50.04925 | 22.00595 | 80° | 110km/h | 14017m | 6.6m/s | 0°C | 0% | 0hPa | 0V | 00:00:00 | 00:00:00 | 00:00:00 | |
| AKAW682 | 2026-09-05 11:55:16 | 50.04899 | 22.00444 | 70° | 102km/h | 13991m | 3.8m/s | 0°C | 0% | 0hPa | 0V | 00:00:00 | 00:00:00 | 00:00:00 | |
| MIELECB | 2026-09-05 11:55:15 | 50.04877 | 22.00368 | 64° | 113km/h | 13979m | 7.4m/s | 0°C | 0% | 0hPa | 0V | 00:00:00 | 00:00:00 | 00:00:00 | |
| MIELECB | 2026-09-05 11:55:09 | 50.04823 | 22.00145 | 76° | 117km/h | 13949m | 8.4m/s | 0°C | 0% | 0hPa | 0V | 00:00:00 | 00:00:00 | 00:00:00 | |
| MIELECB | 2026-09-05 11:55:04 | 50.04776 | 21.99963 | 63° | 104km/h | 13915m | 5.3m/s | 0°C | 0% | 0hPa | 0V | 00:00:00 | 00:00:00 | 00:00:00 | |
| SQ9PSP-11 | 2026-09-05 11:55:00 | 50.04734 | 21.99810 | 74° | 99km/h | 13889m | 7.2m/s | 0°C | 0% | 0hPa | 0V | 00:00:00 | 00:00:00 | 00:00:00 | |
| MIELECB | 2026-09-05 11:54:59 | 50.04727 | 21.99773 | 78° | 95km/h | 13881m | 7.6m/s | 0°C | 0% | 0hPa | 0V | 00:00:00 | 00:00:00 | 00:00:00 | |
| AKAW682 | 2026-09-05 11:54:54 | 50.04704 | 21.99567 | 76° | 104km/h | 13855m | 7.4m/s | 0°C | 0% | 0hPa | 0V | 00:00:00 | 00:00:00 | 00:00:00 | |
| MIELECB | 2026-09-05 11:54:53 | 50.04696 | 21.99530 | 71° | 95km/h | 13849m | 5.5m/s | 0°C | 0% | 0hPa | 0V | 00:00:00 | 00:00:00 | 00:00:00 | |
| MIELECB | 2026-09-05 11:54:47 | 50.04653 | 21.99290 | 74° | 119km/h | 13810m | 4.7m/s | 0°C | 0% | 0hPa | 0V | 00:00:00 | 00:00:00 | 00:00:00 | |
| MIELECB | 2026-09-05 11:54:43 | 50.04608 | 21.99113 | 80° | 75km/h | 13777m | 5.6m/s | 0°C | 0% | 0hPa | 0V | 00:00:00 | 00:00:00 | 00:00:00 | |
| AKAW68 | 2026-09-05 11:54:38 | 50.04591 | 21.98982 | 75° | 97km/h | 13749m | 9.0m/s | 0°C | 0% | 0hPa | 0V | 00:00:00 | 00:00:00 | 00:00:00 | |
| GYPAP8-17 | 2026-09-05 11:54:37 | 50.04584 | 21.98947 | 71° | 93km/h | 13740m | 8.6m/s | 0°C | 0% | 0hPa | 0V | 00:00:00 | 00:00:00 | 00:00:00 | |
| MIELECB | 2026-09-05 11:54:36 | 50.04576 | 21.98914 | 71° | 86km/h | 13733m | 5.1m/s | 0°C | 0% | 0hPa | 0V | 00:00:00 | 00:00:00 | 00:00:00 | |
| AKAW682 | 2026-09-05 11:54:34 | 50.04565 | 21.98853 | 81° | 77km/h | 13720m | 3.0m/s | 0°C | 0% | 0hPa | 0V | 00:00:00 | 00:00:00 | 00:00:00 | |
| MIELECB | 2026-09-05 11:54:31 | 50.04550 | 21.98753 | 70° | 99km/h | 13698m | 7.3m/s | 0°C | 0% | 0hPa | 0V | 00:00:00 | 00:00:00 | 00:00:00 | |
| SQ9PSP-11 | 2026-09-05 11:54:27 | 50.04513 | 21.98634 | 69° | 73km/h | 13676m | 5.1m/s | 0°C | 0% | 0hPa | 0V | 00:00:00 | 00:00:00 | 00:00:00 | |
| MIELECB | 2026-09-05 11:54:25 | 50.04503 | 21.98576 | 80° | 84km/h | 13664m | 7.9m/s | 0°C | 0% | 0hPa | 0V | 00:00:00 | 00:00:00 | 00:00:00 | |
| MIELECB | 2026-09-05 11:54:14 | 50.04448 | 21.98229 | 78° | 89km/h | 13600m | 6.8m/s | 0°C | 0% | 0hPa | 0V | 00:00:00 | 00:00:00 | 00:00:00 | |
| AKAW682 | 2026-09-05 11:54:13 | 50.04443 | 21.98195 | 77° | 89km/h | 13594m | 5.8m/s | 0°C | 0% | 0hPa | 0V | 00:00:00 | 00:00:00 | 00:00:00 | |
| SQ9PSP-11 | 2026-09-05 11:54:11 | 50.04429 | 21.98129 | 67° | 89km/h | 13582m | 6.5m/s | 0°C | 0% | 0hPa | 0V | 00:00:00 | 00:00:00 | 00:00:00 | |
| MIELECB | 2026-09-05 11:54:08 | 50.04405 | 21.98050 | 78° | 84km/h | 13566m | 6.2m/s | 0°C | 0% | 0hPa | 0V | 00:00:00 | 00:00:00 | 00:00:00 | |
| AKAW68 | 2026-09-05 11:54:06 | 50.04408 | 21.97939 | 104° | 84km/h | 13545m | 4.9m/s | 0°C | 0% | 0hPa | 0V | 00:00:00 | 00:00:00 | 00:00:00 | |
| MIELECB | 2026-09-05 11:54:02 | 50.04414 | 21.97826 | 90° | 108km/h | 13530m | 7.7m/s | 0°C | 0% | 0hPa | 0V | 00:00:00 | 00:00:00 | 00:00:00 | |
| MIELECB | 2026-09-05 11:53:57 | 50.04399 | 21.97643 | 89° | 64km/h | 13502m | 3.7m/s | 0°C | 0% | 0hPa | 0V | 00:00:00 | 00:00:00 | 00:00:00 | |
| SQ9PSP-11 | 2026-09-05 11:53:55 | 50.04399 | 21.97594 | 91° | 68km/h | 13495m | 2.6m/s | 0°C | 0% | 0hPa | 0V | 00:00:00 | 00:00:00 | 00:00:00 | |
| AKAW682 | 2026-09-05 11:53:52 | 50.04391 | 21.97491 | 79° | 106km/h | 13479m | 8.7m/s | 0°C | 0% | 0hPa | 0V | 00:00:00 | 00:00:00 | 00:00:00 | |
| MIELECB | 2026-09-05 11:53:51 | 50.04385 | 21.97449 | 80° | 113km/h | 13471m | 6.8m/s | 0°C | 0% | 0hPa | 0V | 00:00:00 | 00:00:00 | 00:00:00 | |
| MIELECB | 2026-09-05 11:53:46 | 50.04382 | 21.97282 | 98° | 68km/h | 13443m | 4.9m/s | 0°C | 0% | 0hPa | 0V | 00:00:00 | 00:00:00 | 00:00:00 | |
| GYPAP8-17 | 2026-09-05 11:53:45 | 50.04384 | 21.97255 | 96° | 75km/h | 13439m | 3.7m/s | 0°C | 0% | 0hPa | 0V | 00:00:00 | 00:00:00 | 00:00:00 | |
| MIELECB | 2026-09-05 11:53:40 | 50.04390 | 21.97075 | 88° | 89km/h | 13406m | 7.2m/s | 0°C | 0% | 0hPa | 0V | 00:00:00 | 00:00:00 | 00:00:00 | |
| SQ9PSP-11 | 2026-09-05 11:53:39 | 50.04388 | 21.97042 | 85° | 82km/h | 13401m | 2.7m/s | 0°C | 0% | 0hPa | 0V | 00:00:00 | 00:00:00 | 00:00:00 | |
| MIELECB | 2026-09-05 11:53:35 | 50.04379 | 21.96901 | 90° | 102km/h | 13375m | 5.9m/s | 0°C | 0% | 0hPa | 0V | 00:00:00 | 00:00:00 | 00:00:00 | |
| AKAW682 | 2026-09-05 11:53:31 | 50.04386 | 21.96750 | 95° | 97km/h | 13356m | 4.5m/s | 0°C | 0% | 0hPa | 0V | 00:00:00 | 00:00:00 | 00:00:00 | |
| MIELECB | 2026-09-05 11:53:29 | 50.04391 | 21.96674 | 101° | 100km/h | 13347m | 0.7m/s | 0°C | 0% | 0hPa | 0V | 00:00:00 | 00:00:00 | 00:00:00 | |
| GYPAP8-17 | 2026-09-05 11:53:25 | 50.04410 | 21.96512 | 93° | 106km/h | 13329m | 3.5m/s | 0°C | 0% | 0hPa | 0V | 00:00:00 | 00:00:00 | 00:00:00 | |
| MIELECB | 2026-09-05 11:53:23 | 50.04409 | 21.96426 | 88° | 115km/h | 13320m | 2.9m/s | 0°C | 0% | 0hPa | 0V | 00:00:00 | 00:00:00 | 00:00:00 | |
| SQ9PSP-11 | 2026-09-05 11:53:20 | 50.04407 | 21.96292 | 94° | 115km/h | 13308m | 5.4m/s | 0°C | 0% | 0hPa | 0V | 00:00:00 | 00:00:00 | 00:00:00 | |
| MIELECB | 2026-09-05 11:53:18 | 50.04414 | 21.96203 | 101° | 115km/h | 13297m | 9.8m/s | 0°C | 0% | 0hPa | 0V | 00:00:00 | 00:00:00 | 00:00:00 | |
| AKAW68 | 2026-09-05 11:53:13 | 50.04441 | 21.95980 | 97° | 108km/h | 13271m | 6.9m/s | 0°C | 0% | 0hPa | 0V | 00:00:00 | 00:00:00 | 00:00:00 | |
| AKAW682 | 2026-09-05 11:53:10 | 50.04447 | 21.95853 | 96° | 113km/h | 13259m | 3.6m/s | 0°C | 0% | 0hPa | 0V | 00:00:00 | 00:00:00 | 00:00:00 | |
| MIELECB | 2026-09-05 11:53:06 | 50.04460 | 21.95663 | 101° | 130km/h | 13241m | 4.2m/s | 0°C | 0% | 0hPa | 0V | 00:00:00 | 00:00:00 | 00:00:00 | |
| SQ9PSP-11 | 2026-09-05 11:53:04 | 50.04469 | 21.95562 | 96° | 131km/h | 13230m | 3.5m/s | 0°C | 0% | 0hPa | 0V | 00:00:00 | 00:00:00 | 00:00:00 | |
| MIELECB | 2026-09-05 11:53:00 | 50.04482 | 21.95371 | 98° | 122km/h | 13211m | 2.2m/s | 0°C | 0% | 0hPa | 0V | 00:00:00 | 00:00:00 | 00:00:00 | |
| MIELECB | 2026-09-05 11:52:55 | 50.04497 | 21.95125 | 96° | 131km/h | 13190m | 5.4m/s | 0°C | 0% | 0hPa | 0V | 00:00:00 | 00:00:00 | 00:00:00 | |
| AKAW68 | 2026-09-05 11:52:53 | 50.04501 | 21.95021 | 92° | 133km/h | 13178m | 3.7m/s | 0°C | 0% | 0hPa | 0V | 00:00:00 | 00:00:00 | 00:00:00 | |
| MIELECB | 2026-09-05 11:52:50 | 50.04503 | 21.94869 | 94° | 122km/h | 13165m | 4.1m/s | 0°C | 0% | 0hPa | 0V | 00:00:00 | 00:00:00 | 00:00:00 | |
| MIELECB | 2026-09-05 11:52:44 | 50.04510 | 21.94555 | 96° | 141km/h | 13136m | 7.6m/s | 0°C | 0% | 0hPa | 0V | 00:00:00 | 00:00:00 | 00:00:00 | |
| MIELECB | 2026-09-05 11:52:38 | 50.04522 | 21.94250 | 88° | 124km/h | 13104m | 7.8m/s | 0°C | 0% | 0hPa | 0V | 00:00:00 | 00:00:00 | 00:00:00 | |
| MIELECB | 2026-09-05 11:52:33 | 50.04524 | 21.93988 | 97° | 141km/h | 13077m | 7.5m/s | 0°C | 0% | 0hPa | 0V | 00:00:00 | 00:00:00 | 00:00:00 | |
| AKAW682 | 2026-09-05 11:52:29 | 50.04534 | 21.93781 | 93° | 124km/h | 13056m | 4.8m/s | 0°C | 0% | 0hPa | 0V | 00:00:00 | 00:00:00 | 00:00:00 | |
| SQ9PSP-11 | 2026-09-05 11:52:28 | 50.04534 | 21.93730 | 90° | 133km/h | 13051m | 4.4m/s | 0°C | 0% | 0hPa | 0V | 00:00:00 | 00:00:00 | 00:00:00 | |
| MIELECB | 2026-09-05 11:52:27 | 50.04534 | 21.93677 | 89° | 139km/h | 13047m | 4.8m/s | 0°C | 0% | 0hPa | 0V | 00:00:00 | 00:00:00 | 00:00:00 | |
| MIELECB | 2026-09-05 11:52:22 | 50.04532 | 21.93412 | 94° | 133km/h | 13019m | 5.6m/s | 0°C | 0% | 0hPa | 0V | 00:00:00 | 00:00:00 | 00:00:00 | |
| MIELECB | 2026-09-05 11:52:16 | 50.04544 | 21.93101 | 90° | 141km/h | 12986m | 4.8m/s | 0°C | 0% | 0hPa | 0V | 00:00:00 | 00:00:00 | 00:00:00 | |
| AKAW68 | 2026-09-05 11:52:12 | 50.04552 | 21.92880 | 96° | 131km/h | 12966m | 7.7m/s | 0°C | 0% | 0hPa | 0V | 00:00:00 | 00:00:00 | 00:00:00 | |
| MIELECB | 2026-09-05 11:52:10 | 50.04556 | 21.92778 | 93° | 131km/h | 12957m | 1.7m/s | 0°C | 0% | 0hPa | 0V | 00:00:00 | 00:00:00 | 00:00:00 | |
| SQ9PSP-11 | 2026-09-05 11:52:08 | 50.04558 | 21.92668 | 93° | 151km/h | 12946m | 7.7m/s | 0°C | 0% | 0hPa | 0V | 00:00:00 | 00:00:00 | 00:00:00 | |
| MIELECB | 2026-09-05 11:52:04 | 50.04567 | 21.92422 | 96° | 146km/h | 12925m | 5.3m/s | 0°C | 0% | 0hPa | 0V | 00:00:00 | 00:00:00 | 00:00:00 | |
| MIELECB | 2026-09-05 11:51:58 | 50.04575 | 21.92083 | 93° | 155km/h | 12889m | 6.5m/s | 0°C | 0% | 0hPa | 0V | 00:00:00 | 00:00:00 | 00:00:00 | |
| MIELECB | 2026-09-05 11:51:52 | 50.04581 | 21.91721 | 93° | 153km/h | 12860m | 3.4m/s | 0°C | 0% | 0hPa | 0V | 00:00:00 | 00:00:00 | 00:00:00 | |
| SQ9PSP-11 | 2026-09-05 11:51:49 | 50.04583 | 21.91540 | 92° | 157km/h | 12846m | 6.7m/s | 0°C | 0% | 0hPa | 0V | 00:00:00 | 00:00:00 | 00:00:00 | |
| AKAW68 | 2026-09-05 11:51:48 | 50.04585 | 21.91479 | 93° | 159km/h | 12840m | 7.5m/s | 0°C | 0% | 0hPa | 0V | 00:00:00 | 00:00:00 | 00:00:00 | |
| AKAW682 | 2026-09-05 11:51:47 | 50.04586 | 21.91416 | 92° | 159km/h | 12834m | 5.7m/s | 0°C | 0% | 0hPa | 0V | 00:00:00 | 00:00:00 | 00:00:00 | |
| MIELECB | 2026-09-05 11:51:46 | 50.04586 | 21.91354 | 92° | 157km/h | 12829m | 6.3m/s | 0°C | 0% | 0hPa | 0V | 00:00:00 | 00:00:00 | 00:00:00 | |
| GYPAP8-17 | 2026-09-05 11:51:42 | 50.04587 | 21.91110 | 92° | 155km/h | 12808m | 4.8m/s | 0°C | 0% | 0hPa | 0V | 00:00:00 | 00:00:00 | 00:00:00 | |
| MIELECB | 2026-09-05 11:51:40 | 50.04588 | 21.90986 | 91° | 157km/h | 12798m | 4.4m/s | 0°C | 0% | 0hPa | 0V | 00:00:00 | 00:00:00 | 00:00:00 | |
| MIELECB | 2026-09-05 11:51:34 | 50.04587 | 21.90622 | 91° | 157km/h | 12768m | 5.8m/s | 0°C | 0% | 0hPa | 0V | 00:00:00 | 00:00:00 | 00:00:00 | |
| SQ9PSP-11 | 2026-09-05 11:51:31 | 50.04585 | 21.90435 | 88° | 157km/h | 12753m | 3.7m/s | 0°C | 0% | 0hPa | 0V | 00:00:00 | 00:00:00 | 00:00:00 | |
| MIELECB | 2026-09-05 11:51:29 | 50.04582 | 21.90315 | 89° | 148km/h | 12742m | 5.1m/s | 0°C | 0% | 0hPa | 0V | 00:00:00 | 00:00:00 | 00:00:00 | |
| AKAW682 | 2026-09-05 11:51:27 | 50.04580 | 21.90198 | 90° | 151km/h | 12734m | 5.9m/s | 0°C | 0% | 0hPa | 0V | 00:00:00 | 00:00:00 | 00:00:00 | |
| MIELECB | 2026-09-05 11:51:24 | 50.04576 | 21.90012 | 90° | 159km/h | 12720m | 6.4m/s | 0°C | 0% | 0hPa | 0V | 00:00:00 | 00:00:00 | 00:00:00 | |
| MIELECB | 2026-09-05 11:51:18 | 50.04568 | 21.89633 | 87° | 162km/h | 12687m | 6.8m/s | 0°C | 0% | 0hPa | 0V | 00:00:00 | 00:00:00 | 00:00:00 | |
| SQ9PSP-11 | 2026-09-05 11:51:15 | 50.04560 | 21.89443 | 88° | 159km/h | 12671m | 4.6m/s | 0°C | 0% | 0hPa | 0V | 00:00:00 | 00:00:00 | 00:00:00 | |
| MIELECB | 2026-09-05 11:51:13 | 50.04555 | 21.89318 | 86° | 161km/h | 12661m | 5.4m/s | 0°C | 0% | 0hPa | 0V | 00:00:00 | 00:00:00 | 00:00:00 | |
| GYPAP8-17 | 2026-09-05 11:51:10 | 50.04547 | 21.89129 | 88° | 159km/h | 12647m | 5.2m/s | 0°C | 0% | 0hPa | 0V | 00:00:00 | 00:00:00 | 00:00:00 | |
| AKAW682 | 2026-09-05 11:51:07 | 50.04538 | 21.88944 | 86° | 159km/h | 12632m | 7.5m/s | 0°C | 0% | 0hPa | 0V | 00:00:00 | 00:00:00 | 00:00:00 | |
| AKAW68 | 2026-09-05 11:51:06 | 50.04535 | 21.88882 | 87° | 159km/h | 12626m | 4.8m/s | 0°C | 0% | 0hPa | 0V | 00:00:00 | 00:00:00 | 00:00:00 | |
| MIELECB | 2026-09-05 11:51:02 | 50.04514 | 21.88631 | 83° | 162km/h | 12606m | 6.0m/s | 0°C | 0% | 0hPa | 0V | 00:00:00 | 00:00:00 | 00:00:00 | |
| MIELECB | 2026-09-05 11:50:56 | 50.04486 | 21.88259 | 85° | 159km/h | 12574m | 5.0m/s | 0°C | 0% | 0hPa | 0V | 00:00:00 | 00:00:00 | 00:00:00 | |
| SQ9PSP-11 | 2026-09-05 11:50:54 | 50.04477 | 21.88134 | 83° | 164km/h | 12564m | 5.4m/s | 0°C | 0% | 0hPa | 0V | 00:00:00 | 00:00:00 | 00:00:00 | |
| MIELECB | 2026-09-05 11:50:50 | 50.04453 | 21.87884 | 83° | 151km/h | 12544m | 6.5m/s | 0°C | 0% | 0hPa | 0V | 00:00:00 | 00:00:00 | 00:00:00 | |
| AKAW682 | 2026-09-05 11:50:46 | 50.04433 | 21.87657 | 84° | 150km/h | 12524m | 5.4m/s | 0°C | 0% | 0hPa | 0V | 00:00:00 | 00:00:00 | 00:00:00 | |
| AKAW68 | 2026-09-05 11:50:45 | 50.04427 | 21.87597 | 82° | 155km/h | 12518m | 6.6m/s | 0°C | 0% | 0hPa | 0V | 00:00:00 | 00:00:00 | 00:00:00 | |
| MIELECB | 2026-09-05 11:50:44 | 50.04420 | 21.87536 | 81° | 162km/h | 12512m | 4.9m/s | 0°C | 0% | 0hPa | 0V | 00:00:00 | 00:00:00 | 00:00:00 | |
| SQ9EZE-12 | 2026-09-05 11:50:43 | 50.04413 | 21.87473 | 80° | 162km/h | 12508m | 4.8m/s | 0°C | 0% | 0hPa | 0V | 00:00:00 | 00:00:00 | 00:00:00 | |
| MIELECB | 2026-09-05 11:50:38 | 50.04388 | 21.87186 | 81° | 133km/h | 12483m | 6.9m/s | 0°C | 0% | 0hPa | 0V | 00:00:00 | 00:00:00 | 00:00:00 | |
| MIELECB | 2026-09-05 11:50:33 | 50.04347 | 21.86896 | 82° | 164km/h | 12454m | 6.0m/s | 0°C | 0% | 0hPa | 0V | 00:00:00 | 00:00:00 | 00:00:00 | |
| SQ9PSP-11 | 2026-09-05 11:50:31 | 50.04333 | 21.86774 | 79° | 151km/h | 12445m | 6.1m/s | 0°C | 0% | 0hPa | 0V | 00:00:00 | 00:00:00 | 00:00:00 | |
| MIELECB | 2026-09-05 11:50:27 | 50.04301 | 21.86557 | 75° | 144km/h | 12424m | 7.6m/s | 0°C | 0% | 0hPa | 0V | 00:00:00 | 00:00:00 | 00:00:00 | |
| AKAW68 | 2026-09-05 11:50:25 | 50.04282 | 21.86443 | 76° | 155km/h | 12413m | 4.8m/s | 0°C | 0% | 0hPa | 0V | 00:00:00 | 00:00:00 | 00:00:00 | |
| AKAW682 | 2026-09-05 11:50:24 | 50.04272 | 21.86384 | 77° | 155km/h | 12407m | 6.1m/s | 0°C | 0% | 0hPa | 0V | 00:00:00 | 00:00:00 | 00:00:00 | |
| MIELECB | 2026-09-05 11:50:18 | 50.04225 | 21.86048 | 77° | 124km/h | 12373m | 5.3m/s | 0°C | 0% | 0hPa | 0V | 00:00:00 | 00:00:00 | 00:00:00 | |
| MIELECB | 2026-09-05 11:50:13 | 50.04177 | 21.85787 | 77° | 151km/h | 12342m | 5.0m/s | 0°C | 0% | 0hPa | 0V | 00:00:00 | 00:00:00 | 00:00:00 | |
| MIELECB | 2026-09-05 11:50:07 | 50.04116 | 21.85481 | 70° | 141km/h | 12311m | 7.6m/s | 0°C | 0% | 0hPa | 0V | 00:00:00 | 00:00:00 | 00:00:00 | |
| AKAW682 | 2026-09-05 11:50:04 | 50.04080 | 21.85323 | 74° | 139km/h | 12293m | 6.0m/s | 0°C | 0% | 0hPa | 0V | 00:00:00 | 00:00:00 | 00:00:00 | |
| AKAW68 | 2026-09-05 11:50:03 | 50.04071 | 21.85271 | 76° | 131km/h | 12287m | 7.1m/s | 0°C | 0% | 0hPa | 0V | 00:00:00 | 00:00:00 | 00:00:00 | |
| MIELECB | 2026-09-05 11:50:01 | 50.04056 | 21.85178 | 77° | 119km/h | 12275m | 6.5m/s | 0°C | 0% | 0hPa | 0V | 00:00:00 | 00:00:00 | 00:00:00 | |
| OE3JTB-15 | 2026-09-05 11:49:56 | 50.03998 | 21.84868 | 75° | 155km/h | 12240m | 6.7m/s | 0°C | 0% | 0hPa | 0V | 00:00:00 | 00:00:00 | 00:00:00 | |
| MIELECB | 2026-09-05 11:49:50 | 50.03965 | 21.84635 | 80° | 120km/h | 12211m | 7.5m/s | 0°C | 0% | 0hPa | 0V | 00:00:00 | 00:00:00 | 00:00:00 | |
| MIELECB | 2026-09-05 11:49:45 | 50.03910 | 21.84390 | 70° | 126km/h | 12181m | 3.0m/s | 0°C | 0% | 0hPa | 0V | 00:00:00 | 00:00:00 | 00:00:00 | |
| AKAW682 | 2026-09-05 11:49:43 | 50.03891 | 21.84300 | 77° | 119km/h | 12170m | 6.6m/s | 0°C | 0% | 0hPa | 0V | 00:00:00 | 00:00:00 | 00:00:00 | |
| SQ9PSP-11 | 2026-09-05 11:49:42 | 50.03885 | 21.84254 | 82° | 119km/h | 12163m | 7.1m/s | 0°C | 0% | 0hPa | 0V | 00:00:00 | 00:00:00 | 00:00:00 | |
| MIELECB | 2026-09-05 11:49:34 | 50.03848 | 21.83869 | 69° | 124km/h | 12116m | 3.7m/s | 0°C | 0% | 0hPa | 0V | 00:00:00 | 00:00:00 | 00:00:00 | |
| MIELECB | 2026-09-05 11:49:29 | 50.03825 | 21.83594 | 97° | 157km/h | 12081m | 5.8m/s | 0°C | 0% | 0hPa | 0V | 00:00:00 | 00:00:00 | 00:00:00 | |
| SQ9PSP-11 | 2026-09-05 11:49:26 | 50.03828 | 21.83422 | 88° | 133km/h | 12065m | 9.1m/s | 0°C | 0% | 0hPa | 0V | 00:00:00 | 00:00:00 | 00:00:00 | |
| MIELECB | 2026-09-05 11:49:24 | 50.03819 | 21.83317 | 80° | 137km/h | 12047m | 8.2m/s | 0°C | 0% | 0hPa | 0V | 00:00:00 | 00:00:00 | 00:00:00 | |
| AKAW682 | 2026-09-05 11:49:23 | 50.03812 | 21.83261 | 79° | 153km/h | 12039m | 6.8m/s | 0°C | 0% | 0hPa | 0V | 00:00:00 | 00:00:00 | 00:00:00 | |
| MIELECB | 2026-09-05 11:49:18 | 50.03790 | 21.82944 | 85° | 144km/h | 12011m | 5.4m/s | 0°C | 0% | 0hPa | 0V | 00:00:00 | 00:00:00 | 00:00:00 | |
| AKAW68 | 2026-09-05 11:49:17 | 50.03785 | 21.82887 | 83° | 144km/h | 12005m | 8.4m/s | 0°C | 0% | 0hPa | 0V | 00:00:00 | 00:00:00 | 00:00:00 | |
| SQ9EZE-12 | 2026-09-05 11:49:15 | 50.03774 | 21.82778 | 80° | 144km/h | 11987m | 9.1m/s | 0°C | 0% | 0hPa | 0V | 00:00:00 | 00:00:00 | 00:00:00 | |
| MIELECB | 2026-09-05 11:49:12 | 50.03757 | 21.82606 | 87° | 146km/h | 11967m | 8.7m/s | 0°C | 0% | 0hPa | 0V | 00:00:00 | 00:00:00 | 00:00:00 | |
| SQ9PSP-11 | 2026-09-05 11:49:08 | 50.03765 | 21.82370 | 96° | 155km/h | 11936m | 6.2m/s | 0°C | 0% | 0hPa | 0V | 00:00:00 | 00:00:00 | 00:00:00 | |
| MIELECB | 2026-09-05 11:49:07 | 50.03767 | 21.82308 | 94° | 161km/h | 11931m | 6.3m/s | 0°C | 0% | 0hPa | 0V | 00:00:00 | 00:00:00 | 00:00:00 | |
| MIELECB | 2026-09-05 11:49:02 | 50.03773 | 21.81925 | 94° | 162km/h | 11894m | 5.8m/s | 0°C | 0% | 0hPa | 0V | 00:00:00 | 00:00:00 | 00:00:00 | |
| SQ9EZE-12 | 2026-09-05 11:48:55 | 50.03775 | 21.81540 | 91° | 161km/h | 11852m | 5.3m/s | 0°C | 0% | 0hPa | 0V | 00:00:00 | 00:00:00 | 00:00:00 | |
| SQ9PSP-11 | 2026-09-05 11:48:51 | 50.03780 | 21.81277 | 92° | 170km/h | 11831m | 6.2m/s | 0°C | 0% | 0hPa | 0V | 00:00:00 | 00:00:00 | 00:00:00 | |
| MIELECB | 2026-09-05 11:48:50 | 50.03781 | 21.81212 | 92° | 164km/h | 11825m | 5.1m/s | 0°C | 0% | 0hPa | 0V | 00:00:00 | 00:00:00 | 00:00:00 | |
| GYPAP8-17 | 2026-09-05 11:48:47 | 50.03787 | 21.81019 | 95° | 166km/h | 11807m | 3.9m/s | 0°C | 0% | 0hPa | 0V | 00:00:00 | 00:00:00 | 00:00:00 | |
| MIELECB | 2026-09-05 11:48:44 | 50.03784 | 21.80821 | 84° | 168km/h | 11791m | 5.1m/s | 0°C | 0% | 0hPa | 0V | 00:00:00 | 00:00:00 | 00:00:00 | |
| AKAW682 | 2026-09-05 11:48:42 | 50.03774 | 21.80686 | 85° | 179km/h | 11782m | 6.0m/s | 0°C | 0% | 0hPa | 0V | 00:00:00 | 00:00:00 | 00:00:00 | |
| MIELECB | 2026-09-05 11:48:39 | 50.03764 | 21.80403 | 90° | 181km/h | 11756m | 4.6m/s | 0°C | 0% | 0hPa | 0V | 00:00:00 | 00:00:00 | 00:00:00 | |
| MIELECB | 2026-09-05 11:48:32 | 50.03764 | 21.79999 | 91° | 155km/h | 11719m | 6.8m/s | 0°C | 0% | 0hPa | 0V | 00:00:00 | 00:00:00 | 00:00:00 | |
| MIELECB | 2026-09-05 11:48:27 | 50.03747 | 21.79696 | 85° | 161km/h | 11689m | 6.7m/s | 0°C | 0% | 0hPa | 0V | 00:00:00 | 00:00:00 | 00:00:00 | |
| MIELECB | 2026-09-05 11:48:21 | 50.03744 | 21.79287 | 90° | 168km/h | 11663m | 5.7m/s | 0°C | 0% | 0hPa | 0V | 00:00:00 | 00:00:00 | 00:00:00 | |
| SQ9PSP-11 | 2026-09-05 11:48:18 | 50.03738 | 21.79113 | 86° | 141km/h | 11650m | 3.2m/s | 0°C | 0% | 0hPa | 0V | 00:00:00 | 00:00:00 | 00:00:00 | |
| MIELECB | 2026-09-05 11:48:16 | 50.03731 | 21.78995 | 86° | 166km/h | 11641m | 7.3m/s | 0°C | 0% | 0hPa | 0V | 00:00:00 | 00:00:00 | 00:00:00 | |
| OE3JTB-15 | 2026-09-05 11:48:15 | 50.03713 | 21.78785 | 81° | 170km/h | 11619m | 5.4m/s | 0°C | 0% | 0hPa | 0V | 00:00:00 | 00:00:00 | 00:00:00 | |
| MIELECB | 2026-09-05 11:48:11 | 50.03696 | 21.78643 | 81° | 181km/h | 11611m | 5.2m/s | 0°C | 0% | 0hPa | 0V | 00:00:00 | 00:00:00 | 00:00:00 | |
| MIELECB | 2026-09-05 11:48:05 | 50.03661 | 21.78218 | 79° | 170km/h | 11574m | 5.8m/s | 0°C | 0% | 0hPa | 0V | 00:00:00 | 00:00:00 | 00:00:00 | |
| SQ9PSP-11 | 2026-09-05 11:48:02 | 50.03630 | 21.78028 | 76° | 162km/h | 11553m | 5.2m/s | 0°C | 0% | 0hPa | 0V | 00:00:00 | 00:00:00 | 00:00:00 | |
| MIELECB | 2026-09-05 11:48:00 | 50.03610 | 21.77903 | 79° | 164km/h | 11545m | 5.8m/s | 0°C | 0% | 0hPa | 0V | 00:00:00 | 00:00:00 | 00:00:00 | |
| MIELECB | 2026-09-05 11:47:55 | 50.03559 | 21.77512 | 77° | 186km/h | 11512m | 4.3m/s | 0°C | 0% | 0hPa | 0V | 00:00:00 | 00:00:00 | 00:00:00 | |
| MIELECB | 2026-09-05 11:47:49 | 50.03507 | 21.77191 | 81° | 151km/h | 11485m | 2.7m/s | 0°C | 0% | 0hPa | 0V | 00:00:00 | 00:00:00 | 00:00:00 | |
| SQ9PSP-11 | 2026-09-05 11:47:46 | 50.03485 | 21.77009 | 79° | 170km/h | 11473m | 2.4m/s | 0°C | 0% | 0hPa | 0V | 00:00:00 | 00:00:00 | 00:00:00 | |
| MIELECB | 2026-09-05 11:47:44 | 50.03467 | 21.76873 | 79° | 183km/h | 11463m | 7.6m/s | 0°C | 0% | 0hPa | 0V | 00:00:00 | 00:00:00 | 00:00:00 | |
| OE3JTB-15 | 2026-09-05 11:47:43 | 50.03457 | 21.76803 | 77° | 179km/h | 11457m | 4.9m/s | 0°C | 0% | 0hPa | 0V | 00:00:00 | 00:00:00 | 00:00:00 | |
| AKAW682 | 2026-09-05 11:47:40 | 50.03425 | 21.76608 | 77° | 162km/h | 11442m | 5.4m/s | 0°C | 0% | 0hPa | 0V | 00:00:00 | 00:00:00 | 00:00:00 | |
| MIELECB | 2026-09-05 11:47:37 | 50.03395 | 21.76424 | 79° | 162km/h | 11427m | 5.1m/s | 0°C | 0% | 0hPa | 0V | 00:00:00 | 00:00:00 | 00:00:00 | |
| AKAW68 | 2026-09-05 11:47:34 | 50.03358 | 21.76166 | 78° | 177km/h | 11405m | 8.1m/s | 0°C | 0% | 0hPa | 0V | 00:00:00 | 00:00:00 | 00:00:00 | |
| GYPAP8-17 | 2026-09-05 11:47:33 | 50.03349 | 21.76097 | 80° | 179km/h | 11399m | 3.6m/s | 0°C | 0% | 0hPa | 0V | 00:00:00 | 00:00:00 | 00:00:00 | |
| MIELECB | 2026-09-05 11:47:31 | 50.03340 | 21.76028 | 80° | 181km/h | 11394m | 7.1m/s | 0°C | 0% | 0hPa | 0V | 00:00:00 | 00:00:00 | 00:00:00 | |
| SQ9PSP-11 | 2026-09-05 11:47:30 | 50.03331 | 21.75960 | 79° | 177km/h | 11388m | 4.8m/s | 0°C | 0% | 0hPa | 0V | 00:00:00 | 00:00:00 | 00:00:00 | |
| MIELECB | 2026-09-05 11:47:25 | 50.03285 | 21.75623 | 79° | 172km/h | 11365m | 3.7m/s | 0°C | 0% | 0hPa | 0V | 00:00:00 | 00:00:00 | 00:00:00 | |
| AKAW682 | 2026-09-05 11:47:19 | 50.03226 | 21.75219 | 80° | 175km/h | 11338m | 4.4m/s | 0°C | 0% | 0hPa | 0V | 00:00:00 | 00:00:00 | 00:00:00 | |
| MIELECB | 2026-09-05 11:47:14 | 50.03184 | 21.74897 | 81° | 162km/h | 11310m | 7.8m/s | 0°C | 0% | 0hPa | 0V | 00:00:00 | 00:00:00 | 00:00:00 | |
| AKAW68 | 2026-09-05 11:47:12 | 50.03167 | 21.74765 | 79° | 177km/h | 11298m | 7.7m/s | 0°C | 0% | 0hPa | 0V | 00:00:00 | 00:00:00 | 00:00:00 | |
| MIELECB | 2026-09-05 11:47:09 | 50.03137 | 21.74558 | 79° | 177km/h | 11281m | 3.5m/s | 0°C | 0% | 0hPa | 0V | 00:00:00 | 00:00:00 | 00:00:00 | |
| GYPAP8-17 | 2026-09-05 11:47:07 | 50.03119 | 21.74424 | 81° | 170km/h | 11270m | 5.0m/s | 0°C | 0% | 0hPa | 0V | 00:00:00 | 00:00:00 | 00:00:00 | |
| SQ9PSP-11 | 2026-09-05 11:47:06 | 50.03113 | 21.74359 | 83° | 162km/h | 11266m | 3.3m/s | 0°C | 0% | 0hPa | 0V | 00:00:00 | 00:00:00 | 00:00:00 | |
| MIELECB | 2026-09-05 11:47:03 | 50.03092 | 21.74170 | 77° | 168km/h | 11254m | 3.3m/s | 0°C | 0% | 0hPa | 0V | 00:00:00 | 00:00:00 | 00:00:00 | |
| MIELECB | 2026-09-05 11:46:58 | 50.03046 | 21.73817 | 82° | 184km/h | 11229m | 5.3m/s | 0°C | 0% | 0hPa | 0V | 00:00:00 | 00:00:00 | 00:00:00 | |
| MIELECB | 2026-09-05 11:46:52 | 50.02997 | 21.73407 | 80° | 181km/h | 11196m | 2.8m/s | 0°C | 0% | 0hPa | 0V | 00:00:00 | 00:00:00 | 00:00:00 | |
| AKAW68 | 2026-09-05 11:46:51 | 50.02989 | 21.73336 | 81° | 186km/h | 11192m | 4.9m/s | 0°C | 0% | 0hPa | 0V | 00:00:00 | 00:00:00 | 00:00:00 | |
| SQ9PSP-11 | 2026-09-05 11:46:49 | 50.02975 | 21.73192 | 84° | 186km/h | 11183m | 4.4m/s | 0°C | 0% | 0hPa | 0V | 00:00:00 | 00:00:00 | 00:00:00 | |
| MIELECB | 2026-09-05 11:46:47 | 50.02962 | 21.73050 | 81° | 179km/h | 11173m | 7.4m/s | 0°C | 0% | 0hPa | 0V | 00:00:00 | 00:00:00 | 00:00:00 | |
| MIELECB | 2026-09-05 11:46:41 | 50.02916 | 21.72644 | 83° | 177km/h | 11145m | 5.9m/s | 0°C | 0% | 0hPa | 0V | 00:00:00 | 00:00:00 | 00:00:00 | |
| AKAW682 | 2026-09-05 11:46:38 | 50.02890 | 21.72435 | 79° | 188km/h | 11133m | 2.7m/s | 0°C | 0% | 0hPa | 0V | 00:00:00 | 00:00:00 | 00:00:00 | |
| MIELECB | 2026-09-05 11:46:35 | 50.02866 | 21.72225 | 84° | 175km/h | 11118m | 5.8m/s | 0°C | 0% | 0hPa | 0V | 00:00:00 | 00:00:00 | 00:00:00 | |
| SQ9PSP-11 | 2026-09-05 11:46:34 | 50.02862 | 21.72156 | 86° | 173km/h | 11113m | 3.7m/s | 0°C | 0% | 0hPa | 0V | 00:00:00 | 00:00:00 | 00:00:00 | |
| MIELECB | 2026-09-05 11:46:30 | 50.02834 | 21.71886 | 79° | 184km/h | 11088m | 4.6m/s | 0°C | 0% | 0hPa | 0V | 00:00:00 | 00:00:00 | 00:00:00 | |
| AKAW68 | 2026-09-05 11:46:29 | 50.02825 | 21.71816 | 79° | 183km/h | 11082m | 7.2m/s | 0°C | 0% | 0hPa | 0V | 00:00:00 | 00:00:00 | 00:00:00 | |
| MIELECB | 2026-09-05 11:46:24 | 50.02788 | 21.71479 | 82° | 172km/h | 11058m | 4.4m/s | 0°C | 0% | 0hPa | 0V | 00:00:00 | 00:00:00 | 00:00:00 | |
| SP9KGR-15 | 2026-09-05 11:46:22 | 50.02775 | 21.71342 | 82° | 181km/h | 11048m | 8.9m/s | 0°C | 0% | 0hPa | 0V | 00:00:00 | 00:00:00 | 00:00:00 | |
| AKAW682 | 2026-09-05 11:46:18 | 50.02745 | 21.71058 | 83° | 177km/h | 11028m | 4.6m/s | 0°C | 0% | 0hPa | 0V | 00:00:00 | 00:00:00 | 00:00:00 | |
| SQ9EZE-12 | 2026-09-05 11:46:17 | 50.02738 | 21.70990 | 83° | 173km/h | 11023m | 5.3m/s | 0°C | 0% | 0hPa | 0V | 00:00:00 | 00:00:00 | 00:00:00 | |
| SQ9PSP-11 | 2026-09-05 11:46:13 | 50.02713 | 21.70718 | 84° | 175km/h | 11001m | 7.7m/s | 0°C | 0% | 0hPa | 0V | 00:00:00 | 00:00:00 | 00:00:00 | |
| MIELECB | 2026-09-05 11:46:12 | 50.02708 | 21.70649 | 84° | 175km/h | 10995m | 3.6m/s | 0°C | 0% | 0hPa | 0V | 00:00:00 | 00:00:00 | 00:00:00 | |
| AKAW68 | 2026-09-05 11:46:08 | 50.02677 | 21.70371 | 79° | 188km/h | 10974m | 7.9m/s | 0°C | 0% | 0hPa | 0V | 00:00:00 | 00:00:00 | 00:00:00 | |
| MIELECB | 2026-09-05 11:46:07 | 50.02668 | 21.70299 | 81° | 190km/h | 10968m | 4.1m/s | 0°C | 0% | 0hPa | 0V | 00:00:00 | 00:00:00 | 00:00:00 | |
| SP9KGR-15 | 2026-09-05 11:46:06 | 50.02661 | 21.70226 | 83° | 184km/h | 10964m | 4.2m/s | 0°C | 0% | 0hPa | 0V | 00:00:00 | 00:00:00 | 00:00:00 | |
| GYPAP8-17 | 2026-09-05 11:46:02 | 50.02641 | 21.69954 | 82° | 175km/h | 10943m | 3.0m/s | 0°C | 0% | 0hPa | 0V | 00:00:00 | 00:00:00 | 00:00:00 | |
| MIELECB | 2026-09-05 11:46:01 | 50.02633 | 21.69886 | 79° | 175km/h | 10937m | 9.3m/s | 0°C | 0% | 0hPa | 0V | 00:00:00 | 00:00:00 | 00:00:00 | |
| AKAW682 | 2026-09-05 11:45:57 | 50.02599 | 21.69612 | 84° | 183km/h | 10915m | 8.8m/s | 0°C | 0% | 0hPa | 0V | 00:00:00 | 00:00:00 | 00:00:00 | |
| MIELECB | 2026-09-05 11:45:55 | 50.02588 | 21.69471 | 84° | 179km/h | 10903m | 4.9m/s | 0°C | 0% | 0hPa | 0V | 00:00:00 | 00:00:00 | 00:00:00 | |
| MIELECB | 2026-09-05 11:45:50 | 50.02561 | 21.69136 | 81° | 183km/h | 10873m | 9.1m/s | 0°C | 0% | 0hPa | 0V | 00:00:00 | 00:00:00 | 00:00:00 | |
| SQ9PSP-11 | 2026-09-05 11:45:49 | 50.02551 | 21.69065 | 79° | 188km/h | 10866m | 5.3m/s | 0°C | 0% | 0hPa | 0V | 00:00:00 | 00:00:00 | 00:00:00 | |
| SP9KGR-15 | 2026-09-05 11:45:47 | 50.02531 | 21.68924 | 77° | 183km/h | 10856m | 6.3m/s | 0°C | 0% | 0hPa | 0V | 00:00:00 | 00:00:00 | 00:00:00 | |
| MIELECB | 2026-09-05 11:45:44 | 50.02508 | 21.68725 | 86° | 168km/h | 10839m | 6.8m/s | 0°C | 0% | 0hPa | 0V | 00:00:00 | 00:00:00 | 00:00:00 | |
| MIELECB | 2026-09-05 11:45:39 | 50.02480 | 21.68375 | 78° | 184km/h | 10812m | 3.9m/s | 0°C | 0% | 0hPa | 0V | 00:00:00 | 00:00:00 | 00:00:00 | |
| AKAW682 | 2026-09-05 11:45:37 | 50.02460 | 21.68238 | 79° | 173km/h | 10804m | 2.7m/s | 0°C | 0% | 0hPa | 0V | 00:00:00 | 00:00:00 | 00:00:00 | |
| MIELECB | 2026-09-05 11:45:34 | 50.02439 | 21.68047 | 83° | 162km/h | 10791m | 4.0m/s | 0°C | 0% | 0hPa | 0V | 00:00:00 | 00:00:00 | 00:00:00 | |
| SQ9PSP-11 | 2026-09-05 11:45:33 | 50.02433 | 21.67983 | 83° | 164km/h | 10787m | 3.7m/s | 0°C | 0% | 0hPa | 0V | 00:00:00 | 00:00:00 | 00:00:00 | |
| MIELECB | 2026-09-05 11:45:28 | 50.02404 | 21.67645 | 85° | 168km/h | 10761m | 5.6m/s | 0°C | 0% | 0hPa | 0V | 00:00:00 | 00:00:00 | 00:00:00 | |
| SQ9EZE-12 | 2026-09-05 11:45:26 | 50.02395 | 21.67512 | 84° | 173km/h | 10752m | 4.1m/s | 0°C | 0% | 0hPa | 0V | 00:00:00 | 00:00:00 | 00:00:00 | |
| MIELECB | 2026-09-05 11:45:23 | 50.02378 | 21.67301 | 84° | 190km/h | 10736m | 6.4m/s | 0°C | 0% | 0hPa | 0V | 00:00:00 | 00:00:00 | 00:00:00 | |
| MIELECB | 2026-09-05 11:45:18 | 50.02336 | 21.66878 | 81° | 170km/h | 10705m | 4.8m/s | 0°C | 0% | 0hPa | 0V | 00:00:00 | 00:00:00 | 00:00:00 | |
| AKAW682 | 2026-09-05 11:45:17 | 50.02330 | 21.66811 | 83° | 172km/h | 10699m | 6.8m/s | 0°C | 0% | 0hPa | 0V | 00:00:00 | 00:00:00 | 00:00:00 | |
| MIELECB | 2026-09-05 11:45:11 | 50.02298 | 21.66477 | 81° | 173km/h | 10672m | 4.6m/s | 0°C | 0% | 0hPa | 0V | 00:00:00 | 00:00:00 | 00:00:00 | |
| MIELECB | 2026-09-05 11:45:05 | 50.02269 | 21.66044 | 85° | 190km/h | 10640m | 5.9m/s | 0°C | 0% | 0hPa | 0V | 00:00:00 | 00:00:00 | 00:00:00 | |
| SQ9PSP-11 | 2026-09-05 11:45:02 | 50.02254 | 21.65831 | 85° | 166km/h | 10622m | 4.8m/s | 0°C | 0% | 0hPa | 0V | 00:00:00 | 00:00:00 | 00:00:00 | |
| MIELECB | 2026-09-05 11:44:59 | 50.02240 | 21.65634 | 84° | 181km/h | 10606m | 5.0m/s | 0°C | 0% | 0hPa | 0V | 00:00:00 | 00:00:00 | 00:00:00 | |
| AKAW682 | 2026-09-05 11:44:56 | 50.02216 | 21.65409 | 80° | 195km/h | 10589m | 5.5m/s | 0°C | 0% | 0hPa | 0V | 00:00:00 | 00:00:00 | 00:00:00 | |
| MIELECB | 2026-09-05 11:44:54 | 50.02201 | 21.65266 | 85° | 172km/h | 10578m | 6.4m/s | 0°C | 0% | 0hPa | 0V | 00:00:00 | 00:00:00 | 00:00:00 | |
| SQ9PSP-11 | 2026-09-05 11:44:46 | 50.02166 | 21.64708 | 84° | 179km/h | 10531m | 3.6m/s | 0°C | 0% | 0hPa | 0V | 00:00:00 | 00:00:00 | 00:00:00 | |
| MIELECB | 2026-09-05 11:44:43 | 50.02153 | 21.64508 | 87° | 170km/h | 10516m | 4.0m/s | 0°C | 0% | 0hPa | 0V | 00:00:00 | 00:00:00 | 00:00:00 | |
| AKAW68 | 2026-09-05 11:44:42 | 50.02149 | 21.64440 | 88° | 175km/h | 10512m | 4.3m/s | 0°C | 0% | 0hPa | 0V | 00:00:00 | 00:00:00 | 00:00:00 | |
| AKAW682 | 2026-09-05 11:44:35 | 50.02114 | 21.63931 | 87° | 175km/h | 10477m | 10.1m/s | 0°C | 0% | 0hPa | 0V | 00:00:00 | 00:00:00 | 00:00:00 | |
| SQ9EZE-12 | 2026-09-05 11:44:33 | 50.02111 | 21.63793 | 89° | 179km/h | 10466m | 3.3m/s | 0°C | 0% | 0hPa | 0V | 00:00:00 | 00:00:00 | 00:00:00 | |
| MIELECB | 2026-09-05 11:44:32 | 50.02108 | 21.63723 | 86° | 179km/h | 10461m | 5.6m/s | 0°C | 0% | 0hPa | 0V | 00:00:00 | 00:00:00 | 00:00:00 | |
| SQ9PSP-11 | 2026-09-05 11:44:31 | 50.02103 | 21.63654 | 83° | 177km/h | 10455m | 5.3m/s | 0°C | 0% | 0hPa | 0V | 00:00:00 | 00:00:00 | 00:00:00 | |
| MIELECB | 2026-09-05 11:44:26 | 50.02074 | 21.63305 | 88° | 183km/h | 10426m | 4.9m/s | 0°C | 0% | 0hPa | 0V | 00:00:00 | 00:00:00 | 00:00:00 | |
| AKAW68 | 2026-09-05 11:44:21 | 50.02052 | 21.62945 | 82° | 183km/h | 10400m | 4.0m/s | 0°C | 0% | 0hPa | 0V | 00:00:00 | 00:00:00 | 00:00:00 | |
| MIELECB | 2026-09-05 11:44:20 | 50.02045 | 21.62875 | 82° | 177km/h | 10394m | 7.8m/s | 0°C | 0% | 0hPa | 0V | 00:00:00 | 00:00:00 | 00:00:00 | |
| SQ9PSP-11 | 2026-09-05 11:44:16 | 50.02029 | 21.62603 | 89° | 183km/h | 10371m | 5.1m/s | 0°C | 0% | 0hPa | 0V | 00:00:00 | 00:00:00 | 00:00:00 | |
| MIELECB | 2026-09-05 11:44:15 | 50.02028 | 21.62531 | 89° | 186km/h | 10365m | 6.3m/s | 0°C | 0% | 0hPa | 0V | 00:00:00 | 00:00:00 | 00:00:00 | |
| AKAW682 | 2026-09-05 11:44:14 | 50.02025 | 21.62458 | 87° | 184km/h | 10360m | 3.4m/s | 0°C | 0% | 0hPa | 0V | 00:00:00 | 00:00:00 | 00:00:00 | |
| MIELECB | 2026-09-05 11:44:10 | 50.02006 | 21.62169 | 86° | 186km/h | 10337m | 5.9m/s | 0°C | 0% | 0hPa | 0V | 00:00:00 | 00:00:00 | 00:00:00 | |
| SQ9EZE-12 | 2026-09-05 11:44:05 | 50.01986 | 21.61749 | 89° | 184km/h | 10299m | 7.4m/s | 0°C | 0% | 0hPa | 0V | 00:00:00 | 00:00:00 | 00:00:00 | |
| OE3JTB-15 | 2026-09-05 11:44:03 | 50.01984 | 21.61677 | 88° | 184km/h | 10292m | 6.4m/s | 0°C | 0% | 0hPa | 0V | 00:00:00 | 00:00:00 | 00:00:00 | |
| SQ9PSP-11 | 2026-09-05 11:44:00 | 50.01973 | 21.61462 | 85° | 184km/h | 10273m | 3.1m/s | 0°C | 0% | 0hPa | 0V | 00:00:00 | 00:00:00 | 00:00:00 | |
| MIELECB | 2026-09-05 11:43:59 | 50.01969 | 21.61391 | 86° | 183km/h | 10267m | 8.8m/s | 0°C | 0% | 0hPa | 0V | 00:00:00 | 00:00:00 | 00:00:00 | |
| MIELECB | 2026-09-05 11:43:53 | 50.01952 | 21.60966 | 87° | 184km/h | 10228m | 8.5m/s | 0°C | 0% | 0hPa | 0V | 00:00:00 | 00:00:00 | 00:00:00 | |
| MIELECB | 2026-09-05 11:43:47 | 50.01943 | 21.60529 | 89° | 181km/h | 10192m | 3.3m/s | 0°C | 0% | 0hPa | 0V | 00:00:00 | 00:00:00 | 00:00:00 | |
| SQ9PSP-11 | 2026-09-05 11:43:45 | 50.01940 | 21.60387 | 91° | 181km/h | 10180m | 4.2m/s | 0°C | 0% | 0hPa | 0V | 00:00:00 | 00:00:00 | 00:00:00 | |
| MIELECB | 2026-09-05 11:43:42 | 50.01940 | 21.60173 | 89° | 190km/h | 10159m | 6.6m/s | 0°C | 0% | 0hPa | 0V | 00:00:00 | 00:00:00 | 00:00:00 | |
| AKAW68 | 2026-09-05 11:43:39 | 50.01935 | 21.59943 | 90° | 199km/h | 10144m | 6.9m/s | 0°C | 0% | 0hPa | 0V | 00:00:00 | 00:00:00 | 00:00:00 | |
| MIELECB | 2026-09-05 11:43:37 | 50.01937 | 21.59787 | 92° | 199km/h | 10132m | 4.7m/s | 0°C | 0% | 0hPa | 0V | 00:00:00 | 00:00:00 | 00:00:00 | |
| AKAW682 | 2026-09-05 11:43:33 | 50.01938 | 21.59497 | 90° | 175km/h | 10103m | 8.7m/s | 0°C | 0% | 0hPa | 0V | 00:00:00 | 00:00:00 | 00:00:00 | |
| MIELECB | 2026-09-05 11:43:31 | 50.01935 | 21.59356 | 88° | 184km/h | 10090m | 5.8m/s | 0°C | 0% | 0hPa | 0V | 00:00:00 | 00:00:00 | 00:00:00 | |
| SQ9PSP-11 | 2026-09-05 11:43:29 | 50.01928 | 21.59209 | 87° | 192km/h | 10078m | 4.7m/s | 0°C | 0% | 0hPa | 0V | 00:00:00 | 00:00:00 | 00:00:00 | |
| MIELECB | 2026-09-05 11:43:26 | 50.01923 | 21.58982 | 92° | 192km/h | 10061m | 7.0m/s | 0°C | 0% | 0hPa | 0V | 00:00:00 | 00:00:00 | 00:00:00 | |
| SQ9EZE-12 | 2026-09-05 11:43:20 | 50.01925 | 21.58541 | 90° | 186km/h | 10025m | 4.9m/s | 0°C | 0% | 0hPa | 0V | 00:00:00 | 00:00:00 | 00:00:00 | |
| AKAW68 | 2026-09-05 11:43:19 | 50.01924 | 21.58468 | 90° | 184km/h | 10017m | 9.2m/s | 0°C | 0% | 0hPa | 0V | 00:00:00 | 00:00:00 | 00:00:00 | |
| MIELECB | 2026-09-05 11:43:15 | 50.01915 | 21.58170 | 89° | 190km/h | 9991m | 5.9m/s | 0°C | 0% | 0hPa | 0V | 00:00:00 | 00:00:00 | 00:00:00 | |
| SQ9PSP-11 | 2026-09-05 11:43:14 | 50.01914 | 21.58096 | 90° | 190km/h | 9987m | 3.1m/s | 0°C | 0% | 0hPa | 0V | 00:00:00 | 00:00:00 | 00:00:00 | |
| MIELECB | 2026-09-05 11:43:11 | 50.01917 | 21.57796 | 91° | 184km/h | 9963m | 5.2m/s | 0°C | 0% | 0hPa | 0V | 00:00:00 | 00:00:00 | 00:00:00 | |
| MIELECB | 2026-09-05 11:43:05 | 50.01914 | 21.57378 | 88° | 192km/h | 9925m | 5.3m/s | 0°C | 0% | 0hPa | 0V | 00:00:00 | 00:00:00 | 00:00:00 | |
| AKAW682 | 2026-09-05 11:43:03 | 50.01912 | 21.57302 | 88° | 197km/h | 9919m | 5.9m/s | 0°C | 0% | 0hPa | 0V | 00:00:00 | 00:00:00 | 00:00:00 | |
| MIELECB | 2026-09-05 11:42:59 | 50.01905 | 21.57000 | 91° | 190km/h | 9891m | 7.8m/s | 0°C | 0% | 0hPa | 0V | 00:00:00 | 00:00:00 | 00:00:00 | |
| AKAW68 | 2026-09-05 11:42:58 | 50.01906 | 21.56926 | 94° | 190km/h | 9885m | 4.4m/s | 0°C | 0% | 0hPa | 0V | 00:00:00 | 00:00:00 | 00:00:00 | |
| MIELECB | 2026-09-05 11:42:53 | 50.01906 | 21.56570 | 88° | 175km/h | 9855m | 4.9m/s | 0°C | 0% | 0hPa | 0V | 00:00:00 | 00:00:00 | 00:00:00 | |
| MIELECB | 2026-09-05 11:42:47 | 50.01900 | 21.56140 | 92° | 184km/h | 9823m | 5.6m/s | 0°C | 0% | 0hPa | 0V | 00:00:00 | 00:00:00 | 00:00:00 | |
| SQ9EZE-12 | 2026-09-05 11:42:45 | 50.01901 | 21.55996 | 90° | 181km/h | 9812m | 3.8m/s | 0°C | 0% | 0hPa | 0V | 00:00:00 | 00:00:00 | 00:00:00 | |
| SQ9PSP-11 | 2026-09-05 11:42:44 | 50.01899 | 21.55925 | 88° | 181km/h | 9806m | 8.5m/s | 0°C | 0% | 0hPa | 0V | 00:00:00 | 00:00:00 | 00:00:00 | |
| AKAW682 | 2026-09-05 11:42:43 | 50.01896 | 21.55854 | 86° | 183km/h | 9799m | 4.6m/s | 0°C | 0% | 0hPa | 0V | 00:00:00 | 00:00:00 | 00:00:00 | |
| MIELECB | 2026-09-05 11:42:41 | 50.01891 | 21.55712 | 89° | 179km/h | 9787m | 5.8m/s | 0°C | 0% | 0hPa | 0V | 00:00:00 | 00:00:00 | 00:00:00 | |
| MIELECB | 2026-09-05 11:42:36 | 50.01884 | 21.55343 | 89° | 199km/h | 9751m | 5.9m/s | 0°C | 0% | 0hPa | 0V | 00:00:00 | 00:00:00 | 00:00:00 | |
| MIELECB | 2026-09-05 11:42:30 | 50.01878 | 21.54909 | 91° | 183km/h | 9714m | 3.7m/s | 0°C | 0% | 0hPa | 0V | 00:00:00 | 00:00:00 | 00:00:00 | |
| SQ9PSP-11 | 2026-09-05 11:42:28 | 50.01877 | 21.54762 | 90° | 190km/h | 9704m | 4.2m/s | 0°C | 0% | 0hPa | 0V | 00:00:00 | 00:00:00 | 00:00:00 | |
| MIELECB | 2026-09-05 11:42:24 | 50.01876 | 21.54464 | 93° | 192km/h | 9685m | 3.7m/s | 0°C | 0% | 0hPa | 0V | 00:00:00 | 00:00:00 | 00:00:00 | |
| AKAW682 | 2026-09-05 11:42:22 | 50.01879 | 21.54314 | 92° | 188km/h | 9675m | 4.9m/s | 0°C | 0% | 0hPa | 0V | 00:00:00 | 00:00:00 | 00:00:00 | |
| MIELECB | 2026-09-05 11:42:19 | 50.01875 | 21.54028 | 90° | 183km/h | 9655m | 3.3m/s | 0°C | 0% | 0hPa | 0V | 00:00:00 | 00:00:00 | 00:00:00 | |
| AKAW68 | 2026-09-05 11:42:17 | 50.01873 | 21.53956 | 90° | 188km/h | 9651m | 4.4m/s | 0°C | 0% | 0hPa | 0V | 00:00:00 | 00:00:00 | 00:00:00 | |
| MIELECB | 2026-09-05 11:42:13 | 50.01869 | 21.53650 | 91° | 188km/h | 9632m | 5.5m/s | 0°C | 0% | 0hPa | 0V | 00:00:00 | 00:00:00 | 00:00:00 | |
| SQ9EZE-12 | 2026-09-05 11:42:07 | 50.01866 | 21.53226 | 90° | 195km/h | 9601m | 5.4m/s | 0°C | 0% | 0hPa | 0V | 00:00:00 | 00:00:00 | 00:00:00 | |
| MIELECB | 2026-09-05 11:42:01 | 50.01856 | 21.52776 | 89° | 186km/h | 9568m | 6.8m/s | 0°C | 0% | 0hPa | 0V | 00:00:00 | 00:00:00 | 00:00:00 | |
| SQ9PSP-11 | 2026-09-05 11:41:58 | 50.01857 | 21.52557 | 93° | 188km/h | 9550m | 6.6m/s | 0°C | 0% | 0hPa | 0V | 00:00:00 | 00:00:00 | 00:00:00 | |
| MIELECB | 2026-09-05 11:41:56 | 50.01856 | 21.52410 | 87° | 192km/h | 9538m | 4.1m/s | 0°C | 0% | 0hPa | 0V | 00:00:00 | 00:00:00 | 00:00:00 | |
| SP9KGR-15 | 2026-09-05 11:41:51 | 50.01853 | 21.52039 | 93° | 184km/h | 9507m | 5.0m/s | 0°C | 0% | 0hPa | 0V | 00:00:00 | 00:00:00 | 00:00:00 | |
| MIELECB | 2026-09-05 11:41:50 | 50.01855 | 21.51966 | 94° | 192km/h | 9501m | 5.9m/s | 0°C | 0% | 0hPa | 0V | 00:00:00 | 00:00:00 | 00:00:00 | |
| MIELECB | 2026-09-05 11:41:44 | 50.01847 | 21.51522 | 87° | 177km/h | 9467m | 3.7m/s | 0°C | 0% | 0hPa | 0V | 00:00:00 | 00:00:00 | 00:00:00 | |
| SQ9PSP-11 | 2026-09-05 11:41:42 | 50.01844 | 21.51382 | 91° | 186km/h | 9458m | 4.2m/s | 0°C | 0% | 0hPa | 0V | 00:00:00 | 00:00:00 | 00:00:00 | |
| AKAW682 | 2026-09-05 11:41:41 | 50.01845 | 21.51307 | 92° | 192km/h | 9451m | 8.6m/s | 0°C | 0% | 0hPa | 0V | 00:00:00 | 00:00:00 | 00:00:00 | |
| SQ9EZE-12 | 2026-09-05 11:41:40 | 50.01845 | 21.51232 | 92° | 193km/h | 9445m | 4.9m/s | 0°C | 0% | 0hPa | 0V | 00:00:00 | 00:00:00 | 00:00:00 | |
| MIELECB | 2026-09-05 11:41:38 | 50.01845 | 21.51082 | 89° | 186km/h | 9431m | 7.4m/s | 0°C | 0% | 0hPa | 0V | 00:00:00 | 00:00:00 | 00:00:00 | |
| AKAW68 | 2026-09-05 11:41:36 | 50.01840 | 21.50941 | 86° | 181km/h | 9419m | 6.8m/s | 0°C | 0% | 0hPa | 0V | 00:00:00 | 00:00:00 | 00:00:00 | |
| MIELECB | 2026-09-05 11:41:33 | 50.01842 | 21.50722 | 95° | 197km/h | 9398m | 8.3m/s | 0°C | 0% | 0hPa | 0V | 00:00:00 | 00:00:00 | 00:00:00 | |
| MIELECB | 2026-09-05 11:41:28 | 50.01855 | 21.50279 | 91° | 188km/h | 9367m | 5.2m/s | 0°C | 0% | 0hPa | 0V | 00:00:00 | 00:00:00 | 00:00:00 | |
| SQ9PSP-11 | 2026-09-05 11:41:26 | 50.01856 | 21.50204 | 92° | 193km/h | 9360m | 7.6m/s | 0°C | 0% | 0hPa | 0V | 00:00:00 | 00:00:00 | 00:00:00 | |
| MIELECB | 2026-09-05 11:41:22 | 50.01864 | 21.49895 | 91° | 197km/h | 9339m | 2.6m/s | 0°C | 0% | 0hPa | 0V | 00:00:00 | 00:00:00 | 00:00:00 | |
| AKAW682 | 2026-09-05 11:41:19 | 50.01864 | 21.49671 | 92° | 179km/h | 9322m | 5.8m/s | 0°C | 0% | 0hPa | 0V | 00:00:00 | 00:00:00 | 00:00:00 | |
| MIELECB | 2026-09-05 11:41:16 | 50.01870 | 21.49463 | 93° | 179km/h | 9305m | 3.8m/s | 0°C | 0% | 0hPa | 0V | 00:00:00 | 00:00:00 | 00:00:00 | |
| AKAW68 | 2026-09-05 11:41:15 | 50.01871 | 21.49392 | 91° | 186km/h | 9300m | 6.4m/s | 0°C | 0% | 0hPa | 0V | 00:00:00 | 00:00:00 | 00:00:00 | |
| MIELECB | 2026-09-05 11:41:10 | 50.01879 | 21.49028 | 93° | 184km/h | 9267m | 7.4m/s | 0°C | 0% | 0hPa | 0V | 00:00:00 | 00:00:00 | 00:00:00 | |
| SP9KGR-15 | 2026-09-05 11:41:06 | 50.01889 | 21.48738 | 95° | 181km/h | 9241m | 5.2m/s | 0°C | 0% | 0hPa | 0V | 00:00:00 | 00:00:00 | 00:00:00 | |
| MIELECB | 2026-09-05 11:41:05 | 50.01892 | 21.48667 | 94° | 184km/h | 9235m | 8.2m/s | 0°C | 0% | 0hPa | 0V | 00:00:00 | 00:00:00 | 00:00:00 | |
| SQ9EZE-12 | 2026-09-05 11:41:04 | 50.01893 | 21.48594 | 92° | 186km/h | 9228m | 4.1m/s | 0°C | 0% | 0hPa | 0V | 00:00:00 | 00:00:00 | 00:00:00 | |
| MIELECB | 2026-09-05 11:40:59 | 50.01897 | 21.48242 | 91° | 181km/h | 9198m | 4.3m/s | 0°C | 0% | 0hPa | 0V | 00:00:00 | 00:00:00 | 00:00:00 | |
| AKAW682 | 2026-09-05 11:40:58 | 50.01899 | 21.48169 | 94° | 188km/h | 9192m | 5.8m/s | 0°C | 0% | 0hPa | 0V | 00:00:00 | 00:00:00 | 00:00:00 | |
| SQ9PSP-11 | 2026-09-05 11:40:55 | 50.01912 | 21.47956 | 98° | 172km/h | 9176m | 5.4m/s | 0°C | 0% | 0hPa | 0V | 00:00:00 | 00:00:00 | 00:00:00 | |
| MIELECB | 2026-09-05 11:40:54 | 50.01917 | 21.47890 | 95° | 164km/h | 9171m | 3.4m/s | 0°C | 0% | 0hPa | 0V | 00:00:00 | 00:00:00 | 00:00:00 | |
| MIELECB | 2026-09-05 11:40:48 | 50.01908 | 21.47478 | 91° | 193km/h | 9145m | 5.1m/s | 0°C | 0% | 0hPa | 0V | 00:00:00 | 00:00:00 | 00:00:00 | |
| MIELECB | 2026-09-05 11:40:43 | 50.01919 | 21.47121 | 90° | 164km/h | 9118m | 4.7m/s | 0°C | 0% | 0hPa | 0V | 00:00:00 | 00:00:00 | 00:00:00 | |
| SQ9PSP-11 | 2026-09-05 11:40:39 | 50.01921 | 21.46851 | 94° | 192km/h | 9093m | 5.4m/s | 0°C | 0% | 0hPa | 0V | 00:00:00 | 00:00:00 | 00:00:00 | |
| MIELECB | 2026-09-05 11:40:37 | 50.01926 | 21.46702 | 93° | 184km/h | 9086m | 1.2m/s | 0°C | 0% | 0hPa | 0V | 00:00:00 | 00:00:00 | 00:00:00 | |
| AKAW68 | 2026-09-05 11:40:35 | 50.01926 | 21.46559 | 89° | 179km/h | 9079m | 5.5m/s | 0°C | 0% | 0hPa | 0V | 00:00:00 | 00:00:00 | 00:00:00 | |
| MIELECB | 2026-09-05 11:40:30 | 50.01907 | 21.46223 | 88° | 175km/h | 9045m | 5.4m/s | 0°C | 0% | 0hPa | 0V | 00:00:00 | 00:00:00 | 00:00:00 | |
| SQ9EZE-12 | 2026-09-05 11:40:25 | 50.01906 | 21.45860 | 92° | 184km/h | 9017m | 3.4m/s | 0°C | 0% | 0hPa | 0V | 00:00:00 | 00:00:00 | 00:00:00 | |
| SQ9PSP-11 | 2026-09-05 11:40:24 | 50.01907 | 21.45789 | 91° | 179km/h | 9013m | 5.1m/s | 0°C | 0% | 0hPa | 0V | 00:00:00 | 00:00:00 | 00:00:00 | |
| MIELECB | 2026-09-05 11:40:18 | 50.01920 | 21.45401 | 94° | 179km/h | 8975m | 6.9m/s | 0°C | 0% | 0hPa | 0V | 00:00:00 | 00:00:00 | 00:00:00 | |
| AKAW68 | 2026-09-05 11:40:14 | 50.01910 | 21.45130 | 83° | 159km/h | 8946m | 5.1m/s | 0°C | 0% | 0hPa | 0V | 00:00:00 | 00:00:00 | 00:00:00 | |
| MIELECB | 2026-09-05 11:40:11 | 50.01894 | 21.44943 | 84° | 168km/h | 8930m | 5.3m/s | 0°C | 0% | 0hPa | 0V | 00:00:00 | 00:00:00 | 00:00:00 | |
| SQ9PSP-11 | 2026-09-05 11:40:08 | 50.01876 | 21.44741 | 84° | 168km/h | 8910m | 2.3m/s | 0°C | 0% | 0hPa | 0V | 00:00:00 | 00:00:00 | 00:00:00 | |
| MIELECB | 2026-09-05 11:40:05 | 50.01868 | 21.44553 | 90° | 159km/h | 8896m | 6.4m/s | 0°C | 0% | 0hPa | 0V | 00:00:00 | 00:00:00 | 00:00:00 | |
| MIELECB | 2026-09-05 11:40:00 | 50.01867 | 21.44241 | 87° | 155km/h | 8868m | 5.1m/s | 0°C | 0% | 0hPa | 0V | 00:00:00 | 00:00:00 | 00:00:00 | |
| AKAW68 | 2026-09-05 11:39:54 | 50.01848 | 21.43881 | 87° | 161km/h | 8832m | 6.5m/s | 0°C | 0% | 0hPa | 0V | 00:00:00 | 00:00:00 | 00:00:00 | |
| SQ9PSP-11 | 2026-09-05 11:39:53 | 50.01845 | 21.43819 | 87° | 155km/h | 8825m | 5.1m/s | 0°C | 0% | 0hPa | 0V | 00:00:00 | 00:00:00 | 00:00:00 | |
| MIELECB | 2026-09-05 11:39:49 | 50.01833 | 21.43576 | 85° | 162km/h | 8803m | 6.1m/s | 0°C | 0% | 0hPa | 0V | 00:00:00 | 00:00:00 | 00:00:00 | |
| MIELECB | 2026-09-05 11:39:44 | 50.01815 | 21.43261 | 83° | 161km/h | 8780m | 6.7m/s | 0°C | 0% | 0hPa | 0V | 00:00:00 | 00:00:00 | 00:00:00 | |
| SQ9EZE-12 | 2026-09-05 11:39:43 | 50.01809 | 21.43199 | 82° | 161km/h | 8775m | 3.9m/s | 0°C | 0% | 0hPa | 0V | 00:00:00 | 00:00:00 | 00:00:00 | |
| SQ9PSP-11 | 2026-09-05 11:39:38 | 50.01792 | 21.42899 | 88° | 157km/h | 8746m | 9.5m/s | 0°C | 0% | 0hPa | 0V | 00:00:00 | 00:00:00 | 00:00:00 | |
| AKAW68 | 2026-09-05 11:39:33 | 50.01773 | 21.42584 | 80° | 151km/h | 8715m | 5.3m/s | 0°C | 0% | 0hPa | 0V | 00:00:00 | 00:00:00 | 00:00:00 | |
| MIELECB | 2026-09-05 11:39:32 | 50.01767 | 21.42526 | 82° | 146km/h | 8707m | 8.5m/s | 0°C | 0% | 0hPa | 0V | 00:00:00 | 00:00:00 | 00:00:00 | |
| AKAW682 | 2026-09-05 11:39:29 | 50.01754 | 21.42350 | 85° | 161km/h | 8688m | 4.5m/s | 0°C | 0% | 0hPa | 0V | 00:00:00 | 00:00:00 | 00:00:00 | |
| SQ9PSP-11 | 2026-09-05 11:39:22 | 50.01722 | 21.41906 | 82° | 153km/h | 8654m | 7.3m/s | 0°C | 0% | 0hPa | 0V | 00:00:00 | 00:00:00 | 00:00:00 | |
| MIELECB | 2026-09-05 11:39:20 | 50.01714 | 21.41787 | 89° | 150km/h | 8640m | 6.5m/s | 0°C | 0% | 0hPa | 0V | 00:00:00 | 00:00:00 | 00:00:00 | |
| MIELECB | 2026-09-05 11:39:14 | 50.01706 | 21.41425 | 86° | 161km/h | 8601m | 4.6m/s | 0°C | 0% | 0hPa | 0V | 00:00:00 | 00:00:00 | 00:00:00 | |
| AKAW68 | 2026-09-05 11:39:13 | 50.01701 | 21.41361 | 83° | 164km/h | 8594m | 7.5m/s | 0°C | 0% | 0hPa | 0V | 00:00:00 | 00:00:00 | 00:00:00 | |
| SQ9EZE-12 | 2026-09-05 11:39:12 | 50.01696 | 21.41298 | 83° | 162km/h | 8588m | 4.8m/s | 0°C | 0% | 0hPa | 0V | 00:00:00 | 00:00:00 | 00:00:00 | |
| AKAW682 | 2026-09-05 11:39:08 | 50.01681 | 21.41057 | 89° | 155km/h | 8566m | 2.8m/s | 0°C | 0% | 0hPa | 0V | 00:00:00 | 00:00:00 | 00:00:00 | |
| MIELECB | 2026-09-05 11:39:07 | 50.01679 | 21.40996 | 88° | 159km/h | 8562m | 7.0m/s | 0°C | 0% | 0hPa | 0V | 00:00:00 | 00:00:00 | 00:00:00 | |
| SQ9PSP-11 | 2026-09-05 11:39:06 | 50.01677 | 21.40934 | 87° | 157km/h | 8555m | 5.7m/s | 0°C | 0% | 0hPa | 0V | 00:00:00 | 00:00:00 | 00:00:00 | |
| MIELECB | 2026-09-05 11:39:01 | 50.01662 | 21.40636 | 86° | 155km/h | 8523m | 4.8m/s | 0°C | 0% | 0hPa | 0V | 00:00:00 | 00:00:00 | 00:00:00 | |
| MIELECB | 2026-09-05 11:38:56 | 50.01645 | 21.40317 | 88° | 150km/h | 8498m | 3.6m/s | 0°C | 0% | 0hPa | 0V | 00:00:00 | 00:00:00 | 00:00:00 | |
| SQ9EZE-12 | 2026-09-05 11:38:55 | 50.01642 | 21.40259 | 88° | 146km/h | 8493m | 6.0m/s | 0°C | 0% | 0hPa | 0V | 00:00:00 | 00:00:00 | 00:00:00 | |
| AKAW68 | 2026-09-05 11:38:52 | 50.01640 | 21.40084 | 90° | 148km/h | 8476m | 5.6m/s | 0°C | 0% | 0hPa | 0V | 00:00:00 | 00:00:00 | 00:00:00 | |
| MIELECB | 2026-09-05 11:38:50 | 50.01636 | 21.39963 | 88° | 161km/h | 8466m | 4.7m/s | 0°C | 0% | 0hPa | 0V | 00:00:00 | 00:00:00 | 00:00:00 | |
| AKAW682 | 2026-09-05 11:38:48 | 50.01631 | 21.39839 | 88° | 155km/h | 8453m | 4.7m/s | 0°C | 0% | 0hPa | 0V | 00:00:00 | 00:00:00 | 00:00:00 | |
| MIELECB | 2026-09-05 11:38:45 | 50.01623 | 21.39663 | 86° | 146km/h | 8437m | 4.7m/s | 0°C | 0% | 0hPa | 0V | 00:00:00 | 00:00:00 | 00:00:00 | |
| SQ9EZE-12 | 2026-09-05 11:38:38 | 50.01604 | 21.39243 | 85° | 157km/h | 8405m | 6.1m/s | 0°C | 0% | 0hPa | 0V | 00:00:00 | 00:00:00 | 00:00:00 | |
| SQ9PSP-11 | 2026-09-05 11:38:35 | 50.01598 | 21.39063 | 90° | 153km/h | 8389m | 6.4m/s | 0°C | 0% | 0hPa | 0V | 00:00:00 | 00:00:00 | 00:00:00 | |
| MIELECB | 2026-09-05 11:38:34 | 50.01596 | 21.39002 | 87° | 151km/h | 8383m | 5.0m/s | 0°C | 0% | 0hPa | 0V | 00:00:00 | 00:00:00 | 00:00:00 | |
| AKAW68 | 2026-09-05 11:38:32 | 50.01591 | 21.38889 | 88° | 137km/h | 8371m | 5.8m/s | 0°C | 0% | 0hPa | 0V | 00:00:00 | 00:00:00 | 00:00:00 | |
| MIELECB | 2026-09-05 11:38:27 | 50.01580 | 21.38606 | 90° | 155km/h | 8342m | 5.6m/s | 0°C | 0% | 0hPa | 0V | 00:00:00 | 00:00:00 | 00:00:00 | |
| SQ9PSP-11 | 2026-09-05 11:38:20 | 50.01555 | 21.38207 | 85° | 151km/h | 8297m | 3.8m/s | 0°C | 0% | 0hPa | 0V | 00:00:00 | 00:00:00 | 00:00:00 | |
| SQ9EZE-12 | 2026-09-05 11:38:16 | 50.01543 | 21.37967 | 88° | 148km/h | 8270m | 4.8m/s | 0°C | 0% | 0hPa | 0V | 00:00:00 | 00:00:00 | 00:00:00 | |
| MIELECB | 2026-09-05 11:38:15 | 50.01541 | 21.37909 | 87° | 148km/h | 8264m | 5.3m/s | 0°C | 0% | 0hPa | 0V | 00:00:00 | 00:00:00 | 00:00:00 | |
| AKAW68 | 2026-09-05 11:38:11 | 50.01526 | 21.37682 | 86° | 141km/h | 8239m | 4.7m/s | 0°C | 0% | 0hPa | 0V | 00:00:00 | 00:00:00 | 00:00:00 | |
| MIELECB | 2026-09-05 11:38:10 | 50.01522 | 21.37626 | 83° | 146km/h | 8232m | 8.8m/s | 0°C | 0% | 0hPa | 0V | 00:00:00 | 00:00:00 | 00:00:00 | |
| MIELECB | 2026-09-05 11:38:05 | 50.01489 | 21.37337 | 82° | 141km/h | 8204m | 5.1m/s | 0°C | 0% | 0hPa | 0V | 00:00:00 | 00:00:00 | 00:00:00 | |
| AKAW682 | 2026-09-05 11:38:04 | 50.01484 | 21.37283 | 83° | 141km/h | 8200m | 4.5m/s | 0°C | 0% | 0hPa | 0V | 00:00:00 | 00:00:00 | 00:00:00 | |
| SQ9PSP-11 | 2026-09-05 11:38:03 | 50.01480 | 21.37226 | 85° | 148km/h | 8194m | 6.9m/s | 0°C | 0% | 0hPa | 0V | 00:00:00 | 00:00:00 | 00:00:00 | |
| MIELECB | 2026-09-05 11:37:59 | 50.01464 | 21.36987 | 83° | 155km/h | 8171m | 4.9m/s | 0°C | 0% | 0hPa | 0V | 00:00:00 | 00:00:00 | 00:00:00 | |
| SQ9EZE-12 | 2026-09-05 11:37:55 | 50.01450 | 21.36761 | 87° | 128km/h | 8152m | 3.3m/s | 0°C | 0% | 0hPa | 0V | 00:00:00 | 00:00:00 | 00:00:00 | |
| MIELECB | 2026-09-05 11:37:53 | 50.01443 | 21.36660 | 81° | 128km/h | 8145m | 3.0m/s | 0°C | 0% | 0hPa | 0V | 00:00:00 | 00:00:00 | 00:00:00 | |
| AKAW68 | 2026-09-05 11:37:51 | 50.01430 | 21.36553 | 80° | 141km/h | 8134m | 6.0m/s | 0°C | 0% | 0hPa | 0V | 00:00:00 | 00:00:00 | 00:00:00 | |
| SQ9PSP-11 | 2026-09-05 11:37:48 | 50.01419 | 21.36378 | 88° | 151km/h | 8113m | 4.5m/s | 0°C | 0% | 0hPa | 0V | 00:00:00 | 00:00:00 | 00:00:00 | |
| AKAW682 | 2026-09-05 11:37:43 | 50.01407 | 21.36084 | 86° | 144km/h | 8084m | 5.1m/s | 0°C | 0% | 0hPa | 0V | 00:00:00 | 00:00:00 | 00:00:00 | |
| MIELECB | 2026-09-05 11:37:42 | 50.01404 | 21.36028 | 86° | 142km/h | 8077m | 7.9m/s | 0°C | 0% | 0hPa | 0V | 00:00:00 | 00:00:00 | 00:00:00 | |
| MIELECB | 2026-09-05 11:37:34 | 50.01364 | 21.35576 | 82° | 150km/h | 8028m | 5.0m/s | 0°C | 0% | 0hPa | 0V | 00:00:00 | 00:00:00 | 00:00:00 | |
| SQ9PSP-11 | 2026-09-05 11:37:32 | 50.01356 | 21.35459 | 85° | 153km/h | 8017m | 8.7m/s | 0°C | 0% | 0hPa | 0V | 00:00:00 | 00:00:00 | 00:00:00 | |
| AKAW68 | 2026-09-05 11:37:31 | 50.01353 | 21.35397 | 88° | 157km/h | 8010m | 3.7m/s | 0°C | 0% | 0hPa | 0V | 00:00:00 | 00:00:00 | 00:00:00 | |
| MIELECB | 2026-09-05 11:37:25 | 50.01321 | 21.35060 | 85° | 139km/h | 7973m | 4.8m/s | 0°C | 0% | 0hPa | 0V | 00:00:00 | 00:00:00 | 00:00:00 | |
| AKAW682 | 2026-09-05 11:37:21 | 50.01312 | 21.34829 | 84° | 146km/h | 7950m | 6.9m/s | 0°C | 0% | 0hPa | 0V | 00:00:00 | 00:00:00 | 00:00:00 | |
| SQ9PSP-11 | 2026-09-05 11:37:17 | 50.01293 | 21.34604 | 83° | 146km/h | 7923m | 8.6m/s | 0°C | 0% | 0hPa | 0V | 00:00:00 | 00:00:00 | 00:00:00 | |
| SQ9EZE-12 | 2026-09-05 11:37:16 | 50.01289 | 21.34547 | 84° | 144km/h | 7916m | 5.8m/s | 0°C | 0% | 0hPa | 0V | 00:00:00 | 00:00:00 | 00:00:00 | |
| AKAW68 | 2026-09-05 11:37:12 | 50.01273 | 21.34195 | 88° | 153km/h | 7877m | 5.8m/s | 0°C | 0% | 0hPa | 0V | 00:00:00 | 00:00:00 | 00:00:00 | |
| MIELECB | 2026-09-05 11:37:07 | 50.01267 | 21.34023 | 86° | 148km/h | 7860m | 5.3m/s | 0°C | 0% | 0hPa | 0V | 00:00:00 | 00:00:00 | 00:00:00 | |
| MIELECB | 2026-09-05 11:37:02 | 50.01253 | 21.33727 | 83° | 148km/h | 7830m | 4.4m/s | 0°C | 0% | 0hPa | 0V | 00:00:00 | 00:00:00 | 00:00:00 | |
| SQ9PSP-11 | 2026-09-05 11:37:01 | 50.01248 | 21.33670 | 83° | 144km/h | 7825m | 5.9m/s | 0°C | 0% | 0hPa | 0V | 00:00:00 | 00:00:00 | 00:00:00 | |
| AKAW682 | 2026-09-05 11:37:00 | 50.01243 | 21.33613 | 85° | 148km/h | 7820m | 3.3m/s | 0°C | 0% | 0hPa | 0V | 00:00:00 | 00:00:00 | 00:00:00 | |
| SQ9EZE-12 | 2026-09-05 11:36:58 | 50.01236 | 21.33499 | 86° | 144km/h | 7811m | 6.2m/s | 0°C | 0% | 0hPa | 0V | 00:00:00 | 00:00:00 | 00:00:00 | |
| MIELECB | 2026-09-05 11:36:55 | 50.01227 | 21.33330 | 88° | 153km/h | 7794m | 5.3m/s | 0°C | 0% | 0hPa | 0V | 00:00:00 | 00:00:00 | 00:00:00 | |
| AKAW68 | 2026-09-05 11:36:50 | 50.01214 | 21.33029 | 87° | 155km/h | 7766m | 6.6m/s | 0°C | 0% | 0hPa | 0V | 00:00:00 | 00:00:00 | 00:00:00 | |
| MIELECB | 2026-09-05 11:36:49 | 50.01212 | 21.32968 | 88° | 157km/h | 7759m | 6.0m/s | 0°C | 0% | 0hPa | 0V | 00:00:00 | 00:00:00 | 00:00:00 | |
| SQ9PSP-11 | 2026-09-05 11:36:46 | 50.01205 | 21.32788 | 87° | 146km/h | 7739m | 5.8m/s | 0°C | 0% | 0hPa | 0V | 00:00:00 | 00:00:00 | 00:00:00 | |
| MIELECB | 2026-09-05 11:36:43 | 50.01202 | 21.32618 | 88° | 144km/h | 7719m | 4.3m/s | 0°C | 0% | 0hPa | 0V | 00:00:00 | 00:00:00 | 00:00:00 | |
| AKAW682 | 2026-09-05 11:36:40 | 50.01195 | 21.32451 | 87° | 139km/h | 7700m | 5.4m/s | 0°C | 0% | 0hPa | 0V | 00:00:00 | 00:00:00 | 00:00:00 | |
| MIELECB | 2026-09-05 11:36:38 | 50.01189 | 21.32342 | 86° | 148km/h | 7688m | 4.7m/s | 0°C | 0% | 0hPa | 0V | 00:00:00 | 00:00:00 | 00:00:00 | |
| MIELECB | 2026-09-05 11:36:32 | 50.01174 | 21.31994 | 86° | 141km/h | 7650m | 7.8m/s | 0°C | 0% | 0hPa | 0V | 00:00:00 | 00:00:00 | 00:00:00 | |
| SQ9PSP-11 | 2026-09-05 11:36:30 | 50.01170 | 21.31879 | 89° | 153km/h | 7636m | 4.4m/s | 0°C | 0% | 0hPa | 0V | 00:00:00 | 00:00:00 | 00:00:00 | |
| AKAW68 | 2026-09-05 11:36:29 | 50.01169 | 21.31818 | 91° | 159km/h | 7629m | 7.9m/s | 0°C | 0% | 0hPa | 0V | 00:00:00 | 00:00:00 | 00:00:00 | |
| MIELECB | 2026-09-05 11:36:26 | 50.01166 | 21.31625 | 86° | 159km/h | 7611m | 5.9m/s | 0°C | 0% | 0hPa | 0V | 00:00:00 | 00:00:00 | 00:00:00 | |
| AKAW682 | 2026-09-05 11:36:19 | 50.01157 | 21.31216 | 91° | 155km/h | 7564m | 4.8m/s | 0°C | 0% | 0hPa | 0V | 00:00:00 | 00:00:00 | 00:00:00 | |
| MIELECB | 2026-09-05 11:36:17 | 50.01155 | 21.31093 | 87° | 153km/h | 7553m | 4.5m/s | 0°C | 0% | 0hPa | 0V | 00:00:00 | 00:00:00 | 00:00:00 | |
| SQ9PSP-11 | 2026-09-05 11:36:14 | 50.01145 | 21.30922 | 87° | 142km/h | 7537m | 6.5m/s | 0°C | 0% | 0hPa | 0V | 00:00:00 | 00:00:00 | 00:00:00 | |
| MIELECB | 2026-09-05 11:36:12 | 50.01145 | 21.30806 | 92° | 150km/h | 7523m | 6.5m/s | 0°C | 0% | 0hPa | 0V | 00:00:00 | 00:00:00 | 00:00:00 | |
| AKAW68 | 2026-09-05 11:36:08 | 50.01139 | 21.30582 | 84° | 137km/h | 7499m | 7.6m/s | 0°C | 0% | 0hPa | 0V | 00:00:00 | 00:00:00 | 00:00:00 | |
| SQ9EZE-12 | 2026-09-05 11:36:07 | 50.01134 | 21.30529 | 82° | 137km/h | 7491m | 6.5m/s | 0°C | 0% | 0hPa | 0V | 00:00:00 | 00:00:00 | 00:00:00 | |
| MIELECB | 2026-09-05 11:36:06 | 50.01129 | 21.30476 | 83° | 141km/h | 7486m | 2.6m/s | 0°C | 0% | 0hPa | 0V | 00:00:00 | 00:00:00 | 00:00:00 | |
| MIELECB | 2026-09-05 11:36:01 | 50.01113 | 21.30187 | 87° | 161km/h | 7448m | 5.2m/s | 0°C | 0% | 0hPa | 0V | 00:00:00 | 00:00:00 | 00:00:00 | |
| AKAW682 | 2026-09-05 11:35:58 | 50.01106 | 21.30004 | 88° | 150km/h | 7436m | 5.2m/s | 0°C | 0% | 0hPa | 0V | 00:00:00 | 00:00:00 | 00:00:00 | |
| MIELECB | 2026-09-05 11:35:56 | 50.01106 | 21.29890 | 90° | 141km/h | 7424m | 5.6m/s | 0°C | 0% | 0hPa | 0V | 00:00:00 | 00:00:00 | 00:00:00 | |
| MIELECB | 2026-09-05 11:35:50 | 50.01100 | 21.29536 | 91° | 153km/h | 7390m | 9.8m/s | 0°C | 0% | 0hPa | 0V | 00:00:00 | 00:00:00 | 00:00:00 | |
| AKAW68 | 2026-09-05 11:35:47 | 50.01095 | 21.29364 | 89° | 139km/h | 7371m | 6.7m/s | 0°C | 0% | 0hPa | 0V | 00:00:00 | 00:00:00 | 00:00:00 | |
| SQ9EZE-12 | 2026-09-05 11:35:46 | 50.01094 | 21.29308 | 90° | 141km/h | 7364m | 6.3m/s | 0°C | 0% | 0hPa | 0V | 00:00:00 | 00:00:00 | 00:00:00 | |
| MIELECB | 2026-09-05 11:35:44 | 50.01094 | 21.29197 | 90° | 142km/h | 7354m | 2.8m/s | 0°C | 0% | 0hPa | 0V | 00:00:00 | 00:00:00 | 00:00:00 | |
| SQ9PSP-11 | 2026-09-05 11:35:43 | 50.01092 | 21.29140 | 87° | 144km/h | 7349m | 7.4m/s | 0°C | 0% | 0hPa | 0V | 00:00:00 | 00:00:00 | 00:00:00 | |
| MIELECB | 2026-09-05 11:35:38 | 50.01078 | 21.28860 | 92° | 137km/h | 7318m | 6.3m/s | 0°C | 0% | 0hPa | 0V | 00:00:00 | 00:00:00 | 00:00:00 | |
| AKAW682 | 2026-09-05 11:35:37 | 50.01079 | 21.28806 | 95° | 137km/h | 7312m | 5.2m/s | 0°C | 0% | 0hPa | 0V | 00:00:00 | 00:00:00 | 00:00:00 | |
| MIELECB | 2026-09-05 11:35:32 | 50.01074 | 21.28532 | 87° | 148km/h | 7276m | 5.9m/s | 0°C | 0% | 0hPa | 0V | 00:00:00 | 00:00:00 | 00:00:00 | |
| MIELECB | 2026-09-05 11:35:27 | 50.01067 | 21.28250 | 88° | 148km/h | 7244m | 2.3m/s | 0°C | 0% | 0hPa | 0V | 00:00:00 | 00:00:00 | 00:00:00 | |
| MIELECB | 2026-09-05 11:35:21 | 50.01058 | 21.27907 | 92° | 142km/h | 7207m | 4.5m/s | 0°C | 0% | 0hPa | 0V | 00:00:00 | 00:00:00 | 00:00:00 | |
| MIELECB | 2026-09-05 11:35:16 | 50.01053 | 21.27618 | 90° | 146km/h | 7178m | 2.5m/s | 0°C | 0% | 0hPa | 0V | 00:00:00 | 00:00:00 | 00:00:00 | |
| SQ9PSP-11 | 2026-09-05 11:35:11 | 50.01039 | 21.27327 | 88° | 157km/h | 7156m | 3.4m/s | 0°C | 0% | 0hPa | 0V | 00:00:00 | 00:00:00 | 00:00:00 | |
| MIELECB | 2026-09-05 11:35:10 | 50.01038 | 21.27265 | 90° | 159km/h | 7151m | 7.0m/s | 0°C | 0% | 0hPa | 0V | 00:00:00 | 00:00:00 | 00:00:00 | |
| AKAW68 | 2026-09-05 11:35:06 | 50.01033 | 21.27035 | 85° | 128km/h | 7131m | 5.5m/s | 0°C | 0% | 0hPa | 0V | 00:00:00 | 00:00:00 | 00:00:00 | |
| MIELECB | 2026-09-05 11:35:04 | 50.01024 | 21.26934 | 83° | 131km/h | 7123m | 3.7m/s | 0°C | 0% | 0hPa | 0V | 00:00:00 | 00:00:00 | 00:00:00 | |
| SQ9EZE-12 | 2026-09-05 11:35:03 | 50.01021 | 21.26882 | 87° | 135km/h | 7119m | 1.6m/s | 0°C | 0% | 0hPa | 0V | 00:00:00 | 00:00:00 | 00:00:00 | |
| MIELECB | 2026-09-05 11:34:58 | 50.01023 | 21.26622 | 93° | 120km/h | 7089m | 5.9m/s | 0°C | 0% | 0hPa | 0V | 00:00:00 | 00:00:00 | 00:00:00 | |
| SQ9PSP-11 | 2026-09-05 11:34:56 | 50.01023 | 21.26526 | 91° | 126km/h | 7078m | 4.2m/s | 0°C | 0% | 0hPa | 0V | 00:00:00 | 00:00:00 | 00:00:00 | |
| MIELECB | 2026-09-05 11:34:52 | 50.01009 | 21.26304 | 85° | 142km/h | 7054m | 3.5m/s | 0°C | 0% | 0hPa | 0V | 00:00:00 | 00:00:00 | 00:00:00 | |
| SQ9EZE-12 | 2026-09-05 11:34:46 | 50.00993 | 21.25999 | 81° | 148km/h | 7016m | 7.2m/s | 0°C | 0% | 0hPa | 0V | 00:00:00 | 00:00:00 | 00:00:00 | |
| AKAW68 | 2026-09-05 11:34:45 | 50.00986 | 21.25942 | 79° | 148km/h | 7011m | 2.8m/s | 0°C | 0% | 0hPa | 0V | 00:00:00 | 00:00:00 | 00:00:00 | |
| SQ9PSP-11 | 2026-09-05 11:34:41 | 50.00961 | 21.25736 | 80° | 120km/h | 7000m | 4.1m/s | 0°C | 0% | 0hPa | 0V | 00:00:00 | 00:00:00 | 00:00:00 | |
| MIELECB | 2026-09-05 11:34:40 | 50.00956 | 21.25689 | 84° | 120km/h | 6995m | 5.8m/s | 0°C | 0% | 0hPa | 0V | 00:00:00 | 00:00:00 | 00:00:00 | |
| AKAW682 | 2026-09-05 11:34:35 | 50.00933 | 21.25407 | 79° | 146km/h | 6967m | 4.4m/s | 0°C | 0% | 0hPa | 0V | 00:00:00 | 00:00:00 | 00:00:00 | |
| MIELECB | 2026-09-05 11:34:34 | 50.00925 | 21.25353 | 77° | 139km/h | 6962m | 5.1m/s | 0°C | 0% | 0hPa | 0V | 00:00:00 | 00:00:00 | 00:00:00 | |
| SQ9PSP-11 | 2026-09-05 11:34:25 | 50.00877 | 21.24858 | 80° | 144km/h | 6908m | 4.1m/s | 0°C | 0% | 0hPa | 0V | 00:00:00 | 00:00:00 | 00:00:00 | |
| MIELECB | 2026-09-05 11:34:22 | 50.00861 | 21.24703 | 87° | 126km/h | 6892m | 7.1m/s | 0°C | 0% | 0hPa | 0V | 00:00:00 | 00:00:00 | 00:00:00 | |
| MIELECB | 2026-09-05 11:34:17 | 50.00851 | 21.24437 | 82° | 131km/h | 6863m | 5.3m/s | 0°C | 0% | 0hPa | 0V | 00:00:00 | 00:00:00 | 00:00:00 | |
| AKAW682 | 2026-09-05 11:34:11 | 50.00811 | 21.24120 | 83° | 146km/h | 6834m | 6.7m/s | 0°C | 0% | 0hPa | 0V | 00:00:00 | 00:00:00 | 00:00:00 | |
| SQ9EZE-12 | 2026-09-05 11:34:10 | 50.00808 | 21.24066 | 85° | 133km/h | 6826m | 5.3m/s | 0°C | 0% | 0hPa | 0V | 00:00:00 | 00:00:00 | 00:00:00 | |
| SQ9PSP-11 | 2026-09-05 11:34:09 | 50.00805 | 21.24015 | 87° | 124km/h | 6821m | 5.3m/s | 0°C | 0% | 0hPa | 0V | 00:00:00 | 00:00:00 | 00:00:00 | |
| AKAW68 | 2026-09-05 11:34:05 | 50.00793 | 21.23821 | 84° | 139km/h | 6802m | 4.3m/s | 0°C | 0% | 0hPa | 0V | 00:00:00 | 00:00:00 | 00:00:00 | |
| MIELECB | 2026-09-05 11:34:00 | 50.00761 | 21.23545 | 80° | 135km/h | 6775m | 5.1m/s | 0°C | 0% | 0hPa | 0V | 00:00:00 | 00:00:00 | 00:00:00 | |
| SQ9EZE-12 | 2026-09-05 11:33:55 | 50.00743 | 21.23290 | 87° | 133km/h | 6748m | 5.7m/s | 0°C | 0% | 0hPa | 0V | 00:00:00 | 00:00:00 | 00:00:00 | |
| SQ9PSP-11 | 2026-09-05 11:33:54 | 50.00740 | 21.23236 | 85° | 141km/h | 6740m | 10.0m/s | 0°C | 0% | 0hPa | 0V | 00:00:00 | 00:00:00 | 00:00:00 | |
| MIELECB | 2026-09-05 11:33:53 | 50.00735 | 21.23181 | 82° | 142km/h | 6732m | 4.2m/s | 0°C | 0% | 0hPa | 0V | 00:00:00 | 00:00:00 | 00:00:00 | |
| MIELECB | 2026-09-05 11:33:46 | 50.00703 | 21.22819 | 84° | 133km/h | 6696m | 4.4m/s | 0°C | 0% | 0hPa | 0V | 00:00:00 | 00:00:00 | 00:00:00 | |
| AKAW68 | 2026-09-05 11:33:44 | 50.00694 | 21.22716 | 85° | 133km/h | 6686m | 3.9m/s | 0°C | 0% | 0hPa | 0V | 00:00:00 | 00:00:00 | 00:00:00 | |
| AKAW682 | 2026-09-05 11:33:42 | 50.00688 | 21.22613 | 85° | 131km/h | 6677m | 7.7m/s | 0°C | 0% | 0hPa | 0V | 00:00:00 | 00:00:00 | 00:00:00 | |
| MIELECB | 2026-09-05 11:33:41 | 50.00684 | 21.22562 | 84° | 130km/h | 6672m | 3.5m/s | 0°C | 0% | 0hPa | 0V | 00:00:00 | 00:00:00 | 00:00:00 | |
| SQ9PSP-11 | 2026-09-05 11:33:39 | 50.00675 | 21.22458 | 83° | 133km/h | 6661m | 5.4m/s | 0°C | 0% | 0hPa | 0V | 00:00:00 | 00:00:00 | 00:00:00 | |
| MIELECB | 2026-09-05 11:33:35 | 50.00662 | 21.22261 | 86° | 128km/h | 6638m | 2.7m/s | 0°C | 0% | 0hPa | 0V | 00:00:00 | 00:00:00 | 00:00:00 | |
| MIELECB | 2026-09-05 11:33:30 | 50.00642 | 21.21998 | 88° | 135km/h | 6616m | 3.9m/s | 0°C | 0% | 0hPa | 0V | 00:00:00 | 00:00:00 | 00:00:00 | |
| MIELECB | 2026-09-05 11:33:24 | 50.00625 | 21.21695 | 83° | 122km/h | 6587m | 3.7m/s | 0°C | 0% | 0hPa | 0V | 00:00:00 | 00:00:00 | 00:00:00 | |
| SQ9PSP-11 | 2026-09-05 11:33:23 | 50.00621 | 21.21646 | 84° | 128km/h | 6582m | 7.1m/s | 0°C | 0% | 0hPa | 0V | 00:00:00 | 00:00:00 | 00:00:00 | |
| AKAW682 | 2026-09-05 11:33:22 | 50.00618 | 21.21593 | 86° | 141km/h | 6577m | 4.1m/s | 0°C | 0% | 0hPa | 0V | 00:00:00 | 00:00:00 | 00:00:00 | |
| MIELECB | 2026-09-05 11:33:16 | 50.00590 | 21.21286 | 83° | 126km/h | 6545m | 2.5m/s | 0°C | 0% | 0hPa | 0V | 00:00:00 | 00:00:00 | 00:00:00 | |
| MIELECB | 2026-09-05 11:33:11 | 50.00578 | 21.21037 | 91° | 126km/h | 6519m | 4.5m/s | 0°C | 0% | 0hPa | 0V | 00:00:00 | 00:00:00 | 00:00:00 | |
| SQ9PSP-11 | 2026-09-05 11:33:07 | 50.00574 | 21.20836 | 86° | 137km/h | 6493m | 3.3m/s | 0°C | 0% | 0hPa | 0V | 00:00:00 | 00:00:00 | 00:00:00 | |
| MIELECB | 2026-09-05 11:33:05 | 50.00566 | 21.20732 | 84° | 131km/h | 6480m | 6.6m/s | 0°C | 0% | 0hPa | 0V | 00:00:00 | 00:00:00 | 00:00:00 | |
| AKAW682 | 2026-09-05 11:33:02 | 50.00564 | 21.20577 | 91° | 137km/h | 6466m | 4.1m/s | 0°C | 0% | 0hPa | 0V | 00:00:00 | 00:00:00 | 00:00:00 | |
| SQ9EZE-12 | 2026-09-05 11:32:58 | 50.00551 | 21.20364 | 84° | 130km/h | 6445m | 4.9m/s | 0°C | 0% | 0hPa | 0V | 00:00:00 | 00:00:00 | 00:00:00 | |
| MIELECB | 2026-09-05 11:32:53 | 50.00535 | 21.20102 | 87° | 133km/h | 6417m | 3.2m/s | 0°C | 0% | 0hPa | 0V | 00:00:00 | 00:00:00 | 00:00:00 | |
| SQ9PSP-11 | 2026-09-05 11:32:51 | 50.00527 | 21.19997 | 82° | 131km/h | 6408m | 1.2m/s | 0°C | 0% | 0hPa | 0V | 00:00:00 | 00:00:00 | 00:00:00 | |
| MIELECB | 2026-09-05 11:32:47 | 50.00513 | 21.19792 | 86° | 124km/h | 6389m | 8.8m/s | 0°C | 0% | 0hPa | 0V | 00:00:00 | 00:00:00 | 00:00:00 | |
| AKAW682 | 2026-09-05 11:32:42 | 50.00501 | 21.19560 | 86° | 120km/h | 6365m | 5.8m/s | 0°C | 0% | 0hPa | 0V | 00:00:00 | 00:00:00 | 00:00:00 | |
| MIELECB | 2026-09-05 11:32:41 | 50.00498 | 21.19513 | 82° | 122km/h | 6359m | 5.4m/s | 0°C | 0% | 0hPa | 0V | 00:00:00 | 00:00:00 | 00:00:00 | |
| SQ9PSP-11 | 2026-09-05 11:32:36 | 50.00483 | 21.19264 | 85° | 126km/h | 6334m | 5.1m/s | 0°C | 0% | 0hPa | 0V | 00:00:00 | 00:00:00 | 00:00:00 | |
| MIELECB | 2026-09-05 11:32:35 | 50.00480 | 21.19216 | 86° | 117km/h | 6327m | 8.0m/s | 0°C | 0% | 0hPa | 0V | 00:00:00 | 00:00:00 | 00:00:00 | |
| MIELECB | 2026-09-05 11:32:28 | 50.00451 | 21.18883 | 88° | 113km/h | 6291m | 4.3m/s | 0°C | 0% | 0hPa | 0V | 00:00:00 | 00:00:00 | 00:00:00 | |
| AKAW68 | 2026-09-05 11:32:22 | 50.00425 | 21.18587 | 80° | 124km/h | 6260m | 1.4m/s | 0°C | 0% | 0hPa | 0V | 00:00:00 | 00:00:00 | 00:00:00 | |
| SQ9PSP-11 | 2026-09-05 11:32:21 | 50.00419 | 21.18538 | 83° | 130km/h | 6256m | 5.0m/s | 0°C | 0% | 0hPa | 0V | 00:00:00 | 00:00:00 | 00:00:00 | |
| MIELECB | 2026-09-05 11:32:16 | 50.00412 | 21.18307 | 85° | 117km/h | 6233m | 5.7m/s | 0°C | 0% | 0hPa | 0V | 00:00:00 | 00:00:00 | 00:00:00 | |
| MIELECB | 2026-09-05 11:32:10 | 50.00382 | 21.17992 | 85° | 131km/h | 6204m | 5.9m/s | 0°C | 0% | 0hPa | 0V | 00:00:00 | 00:00:00 | 00:00:00 | |
| MIELECB | 2026-09-05 11:32:05 | 50.00360 | 21.17743 | 82° | 130km/h | 6176m | 3.4m/s | 0°C | 0% | 0hPa | 0V | 00:00:00 | 00:00:00 | 00:00:00 | |
| AKAW68 | 2026-09-05 11:32:02 | 50.00347 | 21.17597 | 83° | 113km/h | 6164m | 5.9m/s | 0°C | 0% | 0hPa | 0V | 00:00:00 | 00:00:00 | 00:00:00 | |
| MIELECB | 2026-09-05 11:31:59 | 50.00337 | 21.17466 | 87° | 115km/h | 6148m | 6.5m/s | 0°C | 0% | 0hPa | 0V | 00:00:00 | 00:00:00 | 00:00:00 | |
| MIELECB | 2026-09-05 11:31:53 | 50.00329 | 21.17172 | 86° | 133km/h | 6121m | 3.1m/s | 0°C | 0% | 0hPa | 0V | 00:00:00 | 00:00:00 | 00:00:00 | |
| SQ9PSP-11 | 2026-09-05 11:31:49 | 50.00324 | 21.16980 | 92° | 117km/h | 6106m | 5.1m/s | 0°C | 0% | 0hPa | 0V | 00:00:00 | 00:00:00 | 00:00:00 | |
| MIELECB | 2026-09-05 11:31:47 | 50.00322 | 21.16886 | 85° | 124km/h | 6094m | 3.8m/s | 0°C | 0% | 0hPa | 0V | 00:00:00 | 00:00:00 | 00:00:00 | |
| AKAW68 | 2026-09-05 11:31:41 | 50.00308 | 21.16583 | 88° | 126km/h | 6066m | 5.9m/s | 0°C | 0% | 0hPa | 0V | 00:00:00 | 00:00:00 | 00:00:00 | |
| AKAW682 | 2026-09-05 11:31:39 | 50.00303 | 21.16489 | 86° | 111km/h | 6051m | 4.0m/s | 0°C | 0% | 0hPa | 0V | 00:00:00 | 00:00:00 | 00:00:00 | |
| MIELECB | 2026-09-05 11:31:35 | 50.00297 | 21.16318 | 89° | 113km/h | 6034m | 3.1m/s | 0°C | 0% | 0hPa | 0V | 00:00:00 | 00:00:00 | 00:00:00 | |
| SQ9PSP-11 | 2026-09-05 11:31:34 | 50.00297 | 21.16272 | 91° | 120km/h | 6030m | 4.8m/s | 0°C | 0% | 0hPa | 0V | 00:00:00 | 00:00:00 | 00:00:00 | |
| MIELECB | 2026-09-05 11:31:25 | 50.00290 | 21.15820 | 91° | 130km/h | 5989m | 4.9m/s | 0°C | 0% | 0hPa | 0V | 00:00:00 | 00:00:00 | 00:00:00 | |
| AKAW68 | 2026-09-05 11:31:22 | 50.00301 | 21.15617 | 98° | 128km/h | 5966m | 3.2m/s | 0°C | 0% | 0hPa | 0V | 00:00:00 | 00:00:00 | 00:00:00 | |
| AKAW682 | 2026-09-05 11:31:18 | 50.00308 | 21.15473 | 91° | 119km/h | 5950m | 5.9m/s | 0°C | 0% | 0hPa | 0V | 00:00:00 | 00:00:00 | 00:00:00 | |
| SQ9EZE-12 | 2026-09-05 11:31:14 | 50.00307 | 21.15282 | 91° | 122km/h | 5930m | 3.7m/s | 0°C | 0% | 0hPa | 0V | 00:00:00 | 00:00:00 | 00:00:00 | |
| MIELECB | 2026-09-05 11:31:09 | 50.00317 | 21.15041 | 97° | 117km/h | 5910m | 4.0m/s | 0°C | 0% | 0hPa | 0V | 00:00:00 | 00:00:00 | 00:00:00 | |
| MIELECB | 2026-09-05 11:31:04 | 50.00325 | 21.14790 | 89° | 131km/h | 5882m | 4.7m/s | 0°C | 0% | 0hPa | 0V | 00:00:00 | 00:00:00 | 00:00:00 | |
| SQ9PSP-11 | 2026-09-05 11:31:03 | 50.00323 | 21.14739 | 88° | 130km/h | 5877m | 4.1m/s | 0°C | 0% | 0hPa | 0V | 00:00:00 | 00:00:00 | 00:00:00 | |
| AKAW68 | 2026-09-05 11:31:01 | 50.00320 | 21.14637 | 89° | 135km/h | 5871m | 3.5m/s | 0°C | 0% | 0hPa | 0V | 00:00:00 | 00:00:00 | 00:00:00 | |
| AKAW682 | 2026-09-05 11:30:57 | 50.00321 | 21.14439 | 96° | 117km/h | 5850m | 4.0m/s | 0°C | 0% | 0hPa | 0V | 00:00:00 | 00:00:00 | 00:00:00 | |
| SQ9EZE-12 | 2026-09-05 11:30:54 | 50.00327 | 21.14310 | 93° | 115km/h | 5834m | 5.4m/s | 0°C | 0% | 0hPa | 0V | 00:00:00 | 00:00:00 | 00:00:00 | |
| SQ9PSP-11 | 2026-09-05 11:30:48 | 50.00347 | 21.13954 | 93° | 120km/h | 5797m | 3.7m/s | 0°C | 0% | 0hPa | 0V | 00:00:00 | 00:00:00 | 00:00:00 | |
| MIELECB | 2026-09-05 11:30:47 | 50.00347 | 21.13954 | 93° | 120km/h | 5797m | 3.7m/s | 0°C | 0% | 0hPa | 0V | 00:00:00 | 00:00:00 | 00:00:00 | |
| MIELECB | 2026-09-05 11:30:40 | 50.00359 | 21.13633 | 94° | 124km/h | 5760m | 5.9m/s | 0°C | 0% | 0hPa | 0V | 00:00:00 | 00:00:00 | 00:00:00 | |
| SQ9EZE-12 | 2026-09-05 11:30:39 | 50.00360 | 21.13584 | 92° | 124km/h | 5755m | 3.9m/s | 0°C | 0% | 0hPa | 0V | 00:00:00 | 00:00:00 | 00:00:00 | |
| SQ9PSP-11 | 2026-09-05 11:30:30 | 50.00370 | 21.13156 | 92° | 126km/h | 5720m | 3.2m/s | 0°C | 0% | 0hPa | 0V | 00:00:00 | 00:00:00 | 00:00:00 | |
| MIELECB | 2026-09-05 11:30:29 | 50.00372 | 21.13105 | 94° | 130km/h | 5715m | 4.6m/s | 0°C | 0% | 0hPa | 0V | 00:00:00 | 00:00:00 | 00:00:00 | |
| AKAW68 | 2026-09-05 11:30:20 | 50.00417 | 21.12694 | 98° | 106km/h | 5658m | 4.8m/s | 0°C | 0% | 0hPa | 0V | 00:00:00 | 00:00:00 | 00:00:00 | |
| AKAW682 | 2026-09-05 11:30:19 | 50.00428 | 21.12535 | 97° | 100km/h | 5636m | 3.8m/s | 0°C | 0% | 0hPa | 0V | 00:00:00 | 00:00:00 | 00:00:00 | |
| SQ9PSP-11 | 2026-09-05 11:30:14 | 50.00436 | 21.12451 | 103° | 120km/h | 5624m | 4.8m/s | 0°C | 0% | 0hPa | 0V | 00:00:00 | 00:00:00 | 00:00:00 | |
| MIELECB | 2026-09-05 11:30:05 | 50.00492 | 21.12072 | 107° | 108km/h | 5573m | 4.4m/s | 0°C | 0% | 0hPa | 0V | 00:00:00 | 00:00:00 | 00:00:00 | |
| SQ9EZE-12 | 2026-09-05 11:30:04 | 50.00499 | 21.12031 | 102° | 108km/h | 5567m | 5.6m/s | 0°C | 0% | 0hPa | 0V | 00:00:00 | 00:00:00 | 00:00:00 | |
| AKAW68 | 2026-09-05 11:30:00 | 50.00512 | 21.11867 | 98° | 104km/h | 5541m | 6.1m/s | 0°C | 0% | 0hPa | 0V | 00:00:00 | 00:00:00 | 00:00:00 | |
| SQ9PSP-11 | 2026-09-05 11:29:59 | 50.00516 | 21.11827 | 100° | 104km/h | 5535m | 5.7m/s | 0°C | 0% | 0hPa | 0V | 00:00:00 | 00:00:00 | 00:00:00 | |
| AKAW682 | 2026-09-05 11:29:56 | 50.00529 | 21.11703 | 104° | 110km/h | 5513m | 2.0m/s | 0°C | 0% | 0hPa | 0V | 00:00:00 | 00:00:00 | 00:00:00 | |
| SQ9PSP-11 | 2026-09-05 11:29:44 | 50.00587 | 21.11236 | 109° | 106km/h | 5443m | 5.5m/s | 0°C | 0% | 0hPa | 0V | 00:00:00 | 00:00:00 | 00:00:00 | |
| MIELECB | 2026-09-05 11:29:40 | 50.00610 | 21.11077 | 100° | 104km/h | 5413m | 7.2m/s | 0°C | 0% | 0hPa | 0V | 00:00:00 | 00:00:00 | 00:00:00 | |
| AKAW68 | 2026-09-05 11:29:39 | 50.00614 | 21.11037 | 101° | 100km/h | 5406m | 4.9m/s | 0°C | 0% | 0hPa | 0V | 00:00:00 | 00:00:00 | 00:00:00 | |
| MIELECB | 2026-09-05 11:29:33 | 50.00647 | 21.10825 | 105° | 91km/h | 5378m | 6.3m/s | 0°C | 0% | 0hPa | 0V | 00:00:00 | 00:00:00 | 00:00:00 | |
| SQ9PSP-11 | 2026-09-05 11:29:29 | 50.00670 | 21.10683 | 104° | 91km/h | 5355m | 4.4m/s | 0°C | 0% | 0hPa | 0V | 00:00:00 | 00:00:00 | 00:00:00 | |
| SQ9EZE-12 | 2026-09-05 11:29:28 | 50.00675 | 21.10647 | 102° | 93km/h | 5351m | 6.1m/s | 0°C | 0% | 0hPa | 0V | 00:00:00 | 00:00:00 | 00:00:00 | |
| MIELECB | 2026-09-05 11:29:25 | 50.00692 | 21.10539 | 109° | 99km/h | 5335m | 3.7m/s | 0°C | 0% | 0hPa | 0V | 00:00:00 | 00:00:00 | 00:00:00 | |
| AKAW68 | 2026-09-05 11:29:18 | 50.00739 | 21.10246 | 108° | 95km/h | 5299m | 1.9m/s | 0°C | 0% | 0hPa | 0V | 00:00:00 | 00:00:00 | 00:00:00 | |
| SQ9PSP-11 | 2026-09-05 11:29:13 | 50.00763 | 21.10110 | 107° | 93km/h | 5278m | 11.2m/s | 0°C | 0% | 0hPa | 0V | 00:00:00 | 00:00:00 | 00:00:00 | |
| AKAW682 | 2026-09-05 11:29:05 | 50.00806 | 21.09791 | 112° | 93km/h | 5232m | 5.9m/s | 0°C | 0% | 0hPa | 0V | 00:00:00 | 00:00:00 | 00:00:00 | |
| SQ9PSP-11 | 2026-09-05 11:28:57 | 50.00867 | 21.09499 | 104° | 95km/h | 5179m | 6.7m/s | 0°C | 0% | 0hPa | 0V | 00:00:00 | 00:00:00 | 00:00:00 | |
| MIELECB | 2026-09-05 11:28:55 | 50.00880 | 21.09433 | 111° | 80km/h | 5168m | 4.6m/s | 0°C | 0% | 0hPa | 0V | 00:00:00 | 00:00:00 | 00:00:00 | |
| SQ9EZE-12 | 2026-09-05 11:28:50 | 50.00910 | 21.09289 | 107° | 86km/h | 5144m | 4.9m/s | 0°C | 0% | 0hPa | 0V | 00:00:00 | 00:00:00 | 00:00:00 | |
| MIELECB | 2026-09-05 11:28:44 | 50.00949 | 21.09090 | 106° | 82km/h | 5113m | 8.6m/s | 0°C | 0% | 0hPa | 0V | 00:00:00 | 00:00:00 | 00:00:00 | |
| SQ9PSP-11 | 2026-09-05 11:28:42 | 50.00957 | 21.09024 | 96° | 86km/h | 5100m | 4.5m/s | 0°C | 0% | 0hPa | 0V | 00:00:00 | 00:00:00 | 00:00:00 | |
| AKAW68 | 2026-09-05 11:28:36 | 50.00993 | 21.08822 | 119° | 93km/h | 5072m | 3.5m/s | 0°C | 0% | 0hPa | 0V | 00:00:00 | 00:00:00 | 00:00:00 | |
| SQ9EZE-12 | 2026-09-05 11:28:34 | 50.01011 | 21.08758 | 110° | 86km/h | 5061m | 7.9m/s | 0°C | 0% | 0hPa | 0V | 00:00:00 | 00:00:00 | 00:00:00 | |
| AKAW682 | 2026-09-05 11:28:22 | 50.01059 | 21.08410 | 91° | 75km/h | 4981m | 4.7m/s | 0°C | 0% | 0hPa | 0V | 00:00:00 | 00:00:00 | 00:00:00 | |
| AKAW68 | 2026-09-05 11:28:15 | 50.01076 | 21.08202 | 113° | 77km/h | 4941m | 6.7m/s | 0°C | 0% | 0hPa | 0V | 00:00:00 | 00:00:00 | 00:00:00 | |
| MIELECB | 2026-09-05 11:28:11 | 50.01088 | 21.08075 | 91° | 88km/h | 4915m | 3.8m/s | 0°C | 0% | 0hPa | 0V | 00:00:00 | 00:00:00 | 00:00:00 | |
| SQ9PSP-11 | 2026-09-05 11:28:10 | 50.01088 | 21.08040 | 93° | 88km/h | 4911m | 4.3m/s | 0°C | 0% | 0hPa | 0V | 00:00:00 | 00:00:00 | 00:00:00 | |
| SQ9EZE-12 | 2026-09-05 11:28:05 | 50.01108 | 21.07872 | 99° | 97km/h | 4877m | 7.0m/s | 0°C | 0% | 0hPa | 0V | 00:00:00 | 00:00:00 | 00:00:00 | |
| MIELECB | 2026-09-05 11:28:04 | 50.01110 | 21.07837 | 91° | 84km/h | 4870m | 6.6m/s | 0°C | 0% | 0hPa | 0V | 00:00:00 | 00:00:00 | 00:00:00 | |
| MIELECB | 2026-09-05 11:27:56 | 50.01125 | 21.07584 | 101° | 91km/h | 4818m | 6.4m/s | 0°C | 0% | 0hPa | 0V | 00:00:00 | 00:00:00 | 00:00:00 | |
| AKAW682 | 2026-09-05 11:27:55 | 50.01128 | 21.07549 | 97° | 91km/h | 4812m | 4.0m/s | 0°C | 0% | 0hPa | 0V | 00:00:00 | 00:00:00 | 00:00:00 | |
| AKAW68 | 2026-09-05 11:27:53 | 50.01132 | 21.07476 | 95° | 93km/h | 4804m | 4.7m/s | 0°C | 0% | 0hPa | 0V | 00:00:00 | 00:00:00 | 00:00:00 | |
| MIELECB | 2026-09-05 11:27:51 | 50.01133 | 21.07408 | 95° | 80km/h | 4794m | 5.0m/s | 0°C | 0% | 0hPa | 0V | 00:00:00 | 00:00:00 | 00:00:00 | |
| MIELECB | 2026-09-05 11:27:46 | 50.01160 | 21.07263 | 109° | 80km/h | 4767m | 4.7m/s | 0°C | 0% | 0hPa | 0V | 00:00:00 | 00:00:00 | 00:00:00 | |
| SQ9PSP-11 | 2026-09-05 11:27:40 | 50.01177 | 21.07098 | 102° | 73km/h | 4726m | 5.4m/s | 0°C | 0% | 0hPa | 0V | 00:00:00 | 00:00:00 | 00:00:00 | |
| AKAW68 | 2026-09-05 11:27:33 | 50.01209 | 21.06908 | 97° | 88km/h | 4681m | 4.2m/s | 0°C | 0% | 0hPa | 0V | 00:00:00 | 00:00:00 | 00:00:00 | |
| SQ9EZE-12 | 2026-09-05 11:27:29 | 50.01223 | 21.06768 | 109° | 88km/h | 4659m | 4.5m/s | 0°C | 0% | 0hPa | 0V | 00:00:00 | 00:00:00 | 00:00:00 | |
| AKAW682 | 2026-09-05 11:27:26 | 50.01247 | 21.06673 | 109° | 84km/h | 4640m | 6.1m/s | 0°C | 0% | 0hPa | 0V | 00:00:00 | 00:00:00 | 00:00:00 | |
| SQ9PSP-11 | 2026-09-05 11:27:24 | 50.01257 | 21.06614 | 101° | 73km/h | 4625m | 7.7m/s | 0°C | 0% | 0hPa | 0V | 00:00:00 | 00:00:00 | 00:00:00 | |
| MIELECB | 2026-09-05 11:27:14 | 50.01307 | 21.06299 | 100° | 80km/h | 4561m | 6.7m/s | 0°C | 0% | 0hPa | 0V | 00:00:00 | 00:00:00 | 00:00:00 | |
| SQ9EZE-12 | 2026-09-05 11:27:13 | 50.01309 | 21.06269 | 95° | 77km/h | 4554m | 5.3m/s | 0°C | 0% | 0hPa | 0V | 00:00:00 | 00:00:00 | 00:00:00 | |
| AKAW68 | 2026-09-05 11:27:12 | 50.01311 | 21.06240 | 98° | 73km/h | 4548m | 5.7m/s | 0°C | 0% | 0hPa | 0V | 00:00:00 | 00:00:00 | 00:00:00 | |
| SQ9PSP-11 | 2026-09-05 11:27:08 | 50.01331 | 21.06129 | 108° | 78km/h | 4527m | 4.5m/s | 0°C | 0% | 0hPa | 0V | 00:00:00 | 00:00:00 | 00:00:00 | |
| SQ9EZE-12 | 2026-09-05 11:26:56 | 50.01412 | 21.05790 | 102° | 75km/h | 4450m | 7.3m/s | 0°C | 0% | 0hPa | 0V | 00:00:00 | 00:00:00 | 00:00:00 | |
| SQ9PSP-11 | 2026-09-05 11:26:51 | 50.01421 | 21.05645 | 109° | 69km/h | 4414m | 6.3m/s | 0°C | 0% | 0hPa | 0V | 00:00:00 | 00:00:00 | 00:00:00 | |
| AKAW68 | 2026-09-05 11:26:49 | 50.01435 | 21.05594 | 114° | 71km/h | 4404m | 4.9m/s | 0°C | 0% | 0hPa | 0V | 00:00:00 | 00:00:00 | 00:00:00 | |
| SQ9EZE-12 | 2026-09-05 11:26:41 | 50.01455 | 21.05361 | 104° | 78km/h | 4354m | 6.2m/s | 0°C | 0% | 0hPa | 0V | 00:00:00 | 00:00:00 | 00:00:00 | |
| AKAW682 | 2026-09-05 11:26:40 | 50.01460 | 21.05330 | 109° | 82km/h | 4348m | 5.1m/s | 0°C | 0% | 0hPa | 0V | 00:00:00 | 00:00:00 | 00:00:00 | |
| SQ9PSP-11 | 2026-09-05 11:26:35 | 50.01501 | 21.05190 | 115° | 88km/h | 4317m | 6.1m/s | 0°C | 0% | 0hPa | 0V | 00:00:00 | 00:00:00 | 00:00:00 | |
| SQ9EZE-12 | 2026-09-05 11:26:26 | 50.01540 | 21.04928 | 105° | 88km/h | 4262m | 5.7m/s | 0°C | 0% | 0hPa | 0V | 00:00:00 | 00:00:00 | 00:00:00 | |
| AKAW68 | 2026-09-05 11:26:25 | 50.01545 | 21.04895 | 105° | 84km/h | 4256m | 6.3m/s | 0°C | 0% | 0hPa | 0V | 00:00:00 | 00:00:00 | 00:00:00 | |
| SQ9PSP-11 | 2026-09-05 11:26:20 | 50.01562 | 21.04749 | 95° | 77km/h | 4227m | 5.1m/s | 0°C | 0% | 0hPa | 0V | 00:00:00 | 00:00:00 | 00:00:00 | |
| SQ9PSP-11 | 2026-09-05 11:26:05 | 50.01633 | 21.04322 | 114° | 77km/h | 4137m | 3.8m/s | 0°C | 0% | 0hPa | 0V | 00:00:00 | 00:00:00 | 00:00:00 | |
| AKAW68 | 2026-09-05 11:26:03 | 50.01649 | 21.04261 | 110° | 89km/h | 4126m | 4.8m/s | 0°C | 0% | 0hPa | 0V | 00:00:00 | 00:00:00 | 00:00:00 | |
| SQ9EZE-12 | 2026-09-05 11:26:01 | 50.01661 | 21.04195 | 104° | 86km/h | 4116m | 2.6m/s | 0°C | 0% | 0hPa | 0V | 00:00:00 | 00:00:00 | 00:00:00 | |
| SQ9PSP-11 | 2026-09-05 11:25:49 | 50.01715 | 21.03844 | 100° | 77km/h | 4038m | 5.7m/s | 0°C | 0% | 0hPa | 0V | 00:00:00 | 00:00:00 | 00:00:00 | |
| SQ9EZE-12 | 2026-09-05 11:25:43 | 50.01752 | 21.03677 | 103° | 68km/h | 4007m | 5.9m/s | 0°C | 0% | 0hPa | 0V | 00:00:00 | 00:00:00 | 00:00:00 | |
| MIELECB | 2026-09-05 11:25:42 | 50.01755 | 21.03652 | 99° | 66km/h | 4001m | 5.9m/s | 0°C | 0% | 0hPa | 0V | 00:00:00 | 00:00:00 | 00:00:00 | |
| MIELECB | 2026-09-05 11:25:37 | 50.01768 | 21.03523 | 107° | 62km/h | 3971m | 7.8m/s | 0°C | 0% | 0hPa | 0V | 00:00:00 | 00:00:00 | 00:00:00 | |
| SQ9PSP-11 | 2026-09-05 11:25:34 | 50.01784 | 21.03455 | 104° | 62km/h | 3954m | 6.4m/s | 0°C | 0% | 0hPa | 0V | 00:00:00 | 00:00:00 | 00:00:00 | |
| MIELECB | 2026-09-05 11:25:31 | 50.01793 | 21.03375 | 98° | 82km/h | 3931m | 7.9m/s | 0°C | 0% | 0hPa | 0V | 00:00:00 | 00:00:00 | 00:00:00 | |
| SQ9EZE-12 | 2026-09-05 11:25:27 | 50.01804 | 21.03256 | 107° | 66km/h | 3909m | 6.3m/s | 0°C | 0% | 0hPa | 0V | 00:00:00 | 00:00:00 | 00:00:00 | |
| MIELECB | 2026-09-05 11:25:25 | 50.01813 | 21.03208 | 106° | 68km/h | 3893m | 7.3m/s | 0°C | 0% | 0hPa | 0V | 00:00:00 | 00:00:00 | 00:00:00 | |
| AKAW68 | 2026-09-05 11:25:21 | 50.01825 | 21.03101 | 109° | 71km/h | 3867m | 4.6m/s | 0°C | 0% | 0hPa | 0V | 00:00:00 | 00:00:00 | 00:00:00 | |
| SQ9PSP-11 | 2026-09-05 11:25:19 | 50.01839 | 21.03050 | 118° | 68km/h | 3854m | 6.0m/s | 0°C | 0% | 0hPa | 0V | 00:00:00 | 00:00:00 | 00:00:00 | |
| MIELECB | 2026-09-05 11:25:08 | 50.01922 | 21.02743 | 108° | 84km/h | 3787m | 5.1m/s | 0°C | 0% | 0hPa | 0V | 00:00:00 | 00:00:00 | 00:00:00 | |
| SQ9PSP-11 | 2026-09-05 11:25:03 | 50.01935 | 21.02597 | 94° | 71km/h | 3760m | 5.6m/s | 0°C | 0% | 0hPa | 0V | 00:00:00 | 00:00:00 | 00:00:00 | |
| AKAW68 | 2026-09-05 11:25:01 | 50.01938 | 21.02541 | 98° | 73km/h | 3745m | 7.0m/s | 0°C | 0% | 0hPa | 0V | 00:00:00 | 00:00:00 | 00:00:00 | |
| SQ9PSP-11 | 2026-09-05 11:24:47 | 50.02020 | 21.02155 | 117° | 68km/h | 3655m | 6.0m/s | 0°C | 0% | 0hPa | 0V | 00:00:00 | 00:00:00 | 00:00:00 | |
| MIELECB | 2026-09-05 11:24:46 | 50.02027 | 21.02130 | 111° | 71km/h | 3649m | 5.2m/s | 0°C | 0% | 0hPa | 0V | 00:00:00 | 00:00:00 | 00:00:00 | |
| SQ9EZE-12 | 2026-09-05 11:24:42 | 50.02046 | 21.02022 | 108° | 66km/h | 3620m | 6.4m/s | 0°C | 0% | 0hPa | 0V | 00:00:00 | 00:00:00 | 00:00:00 | |
| AKAW68 | 2026-09-05 11:24:41 | 50.02051 | 21.01999 | 113° | 62km/h | 3613m | 5.4m/s | 0°C | 0% | 0hPa | 0V | 00:00:00 | 00:00:00 | 00:00:00 | |
| SQ9PSP-11 | 2026-09-05 11:24:32 | 50.02105 | 21.01762 | 89° | 69km/h | 3565m | 5.8m/s | 0°C | 0% | 0hPa | 0V | 00:00:00 | 00:00:00 | 00:00:00 | |
| AKAW68 | 2026-09-05 11:24:20 | 50.02143 | 21.01452 | 97° | 51km/h | 3487m | 4.0m/s | 0°C | 0% | 0hPa | 0V | 00:00:00 | 00:00:00 | 00:00:00 | |
| SQ9PSP-11 | 2026-09-05 11:24:16 | 50.02158 | 21.01364 | 104° | 69km/h | 3462m | 7.1m/s | 0°C | 0% | 0hPa | 0V | 00:00:00 | 00:00:00 | 00:00:00 | |
| MIELECB | 2026-09-05 11:24:15 | 50.02161 | 21.01337 | 101° | 73km/h | 3455m | 6.6m/s | 0°C | 0% | 0hPa | 0V | 00:00:00 | 00:00:00 | 00:00:00 | |
| SQ9EZE-12 | 2026-09-05 11:24:05 | 50.02196 | 21.01095 | 91° | 77km/h | 3382m | 5.6m/s | 0°C | 0% | 0hPa | 0V | 00:00:00 | 00:00:00 | 00:00:00 | |
| SQ9PSP-11 | 2026-09-05 11:24:00 | 50.02202 | 21.00956 | 104° | 80km/h | 3357m | 6.9m/s | 0°C | 0% | 0hPa | 0V | 00:00:00 | 00:00:00 | 00:00:00 | |
| AKAW68 | 2026-09-05 11:23:59 | 50.02207 | 21.00924 | 104° | 84km/h | 3349m | 8.3m/s | 0°C | 0% | 0hPa | 0V | 00:00:00 | 00:00:00 | 00:00:00 | |
| SQ9PSP-11 | 2026-09-05 11:23:45 | 50.02273 | 21.00565 | 102° | 46km/h | 3259m | 5.2m/s | 0°C | 0% | 0hPa | 0V | 00:00:00 | 00:00:00 | 00:00:00 | |
| MIELECB | 2026-09-05 11:23:42 | 50.02285 | 21.00512 | 116° | 55km/h | 3243m | 6.5m/s | 0°C | 0% | 0hPa | 0V | 00:00:00 | 00:00:00 | 00:00:00 | |
| AKAW68 | 2026-09-05 11:23:38 | 50.02314 | 21.00410 | 111° | 80km/h | 3218m | 4.2m/s | 0°C | 0% | 0hPa | 0V | 00:00:00 | 00:00:00 | 00:00:00 | |
| SQ9EZE-12 | 2026-09-05 11:23:33 | 50.02334 | 21.00271 | 102° | 60km/h | 3185m | 7.6m/s | 0°C | 0% | 0hPa | 0V | 00:00:00 | 00:00:00 | 00:00:00 | |
| SQ9PSP-11 | 2026-09-05 11:23:29 | 50.02354 | 21.00173 | 115° | 68km/h | 3152m | 6.5m/s | 0°C | 0% | 0hPa | 0V | 00:00:00 | 00:00:00 | 00:00:00 | |
| AKAW68 | 2026-09-05 11:23:18 | 50.02394 | 20.99897 | 109° | 53km/h | 3096m | 6.6m/s | 0°C | 0% | 0hPa | 0V | 00:00:00 | 00:00:00 | 00:00:00 | |
| SQ9PSP-11 | 2026-09-05 11:23:14 | 50.02423 | 20.99809 | 120° | 73km/h | 3071m | 3.2m/s | 0°C | 0% | 0hPa | 0V | 00:00:00 | 00:00:00 | 00:00:00 | |
| SQ9PSP-11 | 2026-09-05 11:22:58 | 50.02493 | 20.99448 | 101° | 69km/h | 2999m | 6.1m/s | 0°C | 0% | 0hPa | 0V | 00:00:00 | 00:00:00 | 00:00:00 | |
| AKAW68 | 2026-09-05 11:22:57 | 50.02497 | 20.99421 | 107° | 75km/h | 2994m | 4.8m/s | 0°C | 0% | 0hPa | 0V | 00:00:00 | 00:00:00 | 00:00:00 | |
| SQ9EZE-12 | 2026-09-05 11:22:53 | 50.02518 | 20.99315 | 108° | 68km/h | 2975m | 4.6m/s | 0°C | 0% | 0hPa | 0V | 00:00:00 | 00:00:00 | 00:00:00 | |
| SQ9PSP-11 | 2026-09-05 11:22:42 | 50.02561 | 20.99058 | 103° | 55km/h | 2943m | 0.5m/s | 0°C | 0% | 0hPa | 0V | 00:00:00 | 00:00:00 | 00:00:00 | |
| AKAW68 | 2026-09-05 11:22:37 | 50.02590 | 20.98927 | 102° | 82km/h | 2927m | 4.5m/s | 0°C | 0% | 0hPa | 0V | 00:00:00 | 00:00:00 | 00:00:00 | |
| SQ9EZE-12 | 2026-09-05 11:22:35 | 50.02597 | 20.98870 | 105° | 64km/h | 2918m | 3.9m/s | 0°C | 0% | 0hPa | 0V | 00:00:00 | 00:00:00 | 00:00:00 | |
| SQ9PSP-11 | 2026-09-05 11:22:27 | 50.02634 | 20.98682 | 101° | 44km/h | 2880m | 4.4m/s | 0°C | 0% | 0hPa | 0V | 00:00:00 | 00:00:00 | 00:00:00 | |
| SQ9EZE-14 | 2026-09-05 11:22:21 | 50.02665 | 20.98553 | 102° | 66km/h | 2857m | 3.0m/s | 0°C | 0% | 0hPa | 0V | 00:00:00 | 00:00:00 | 00:00:00 | |
| AKAW68 | 2026-09-05 11:22:16 | 50.02674 | 20.98466 | 119° | 44km/h | 2842m | 3.9m/s | 0°C | 0% | 0hPa | 0V | 00:00:00 | 00:00:00 | 00:00:00 | |
| SQ9EZE-12 | 2026-09-05 11:22:15 | 50.02679 | 20.98449 | 111° | 49km/h | 2836m | 5.8m/s | 0°C | 0% | 0hPa | 0V | 00:00:00 | 00:00:00 | 00:00:00 | |
| SQ9PSP-11 | 2026-09-05 11:22:09 | 50.02690 | 20.98341 | 126° | 49km/h | 2808m | 2.6m/s | 0°C | 0% | 0hPa | 0V | 00:00:00 | 00:00:00 | 00:00:00 | |
| SQ9EZE-12 | 2026-09-05 11:21:58 | 50.02738 | 20.98131 | 111° | 55km/h | 2747m | 4.6m/s | 0°C | 0% | 0hPa | 0V | 00:00:00 | 00:00:00 | 00:00:00 | |
| AKAW68 | 2026-09-05 11:21:56 | 50.02747 | 20.98087 | 109° | 62km/h | 2739m | 5.3m/s | 0°C | 0% | 0hPa | 0V | 00:00:00 | 00:00:00 | 00:00:00 | |
| SQ9PSP-11 | 2026-09-05 11:21:53 | 50.02763 | 20.98028 | 116° | 49km/h | 2725m | 6.5m/s | 0°C | 0% | 0hPa | 0V | 00:00:00 | 00:00:00 | 00:00:00 | |
| SQ9PSP-11 | 2026-09-05 11:21:37 | 50.02744 | 20.97801 | 73° | 26km/h | 2621m | 5.3m/s | 0°C | 0% | 0hPa | 0V | 00:00:00 | 00:00:00 | 00:00:00 | |
| AKAW68 | 2026-09-05 11:21:35 | 50.02743 | 20.97777 | 94° | 38km/h | 2607m | 6.2m/s | 0°C | 0% | 0hPa | 0V | 00:00:00 | 00:00:00 | 00:00:00 | |
| SQ9EZE-12 | 2026-09-05 11:21:26 | 50.02764 | 20.97611 | 111° | 51km/h | 2557m | 1.0m/s | 0°C | 0% | 0hPa | 0V | 00:00:00 | 00:00:00 | 00:00:00 | |
| SQ9PSP-11 | 2026-09-05 11:21:20 | 50.02772 | 20.97519 | 72° | 49km/h | 2525m | 4.9m/s | 0°C | 0% | 0hPa | 0V | 00:00:00 | 00:00:00 | 00:00:00 | |
| AKAW68 | 2026-09-05 11:21:15 | 50.02763 | 20.97411 | 87° | 58km/h | 2497m | 7.7m/s | 0°C | 0% | 0hPa | 0V | 00:00:00 | 00:00:00 | 00:00:00 | |
| SQ9PSP-11 | 2026-09-05 11:21:05 | 50.02776 | 20.97258 | 99° | 33km/h | 2400m | 9.4m/s | 0°C | 0% | 0hPa | 0V | 00:00:00 | 00:00:00 | 00:00:00 | |
| AKAW68 | 2026-09-05 11:20:53 | 50.02824 | 20.97114 | 118° | 31km/h | 2302m | 8.1m/s | 0°C | 0% | 0hPa | 0V | 00:00:00 | 00:00:00 | 00:00:00 | |
| SQ9PSP-11 | 2026-09-05 11:20:49 | 50.02837 | 20.97075 | 103° | 22km/h | 2265m | 5.5m/s | 0°C | 0% | 0hPa | 0V | 00:00:00 | 00:00:00 | 00:00:00 | |
| SQ9PSP-11 | 2026-09-05 11:20:34 | 50.02819 | 20.96808 | 74° | 42km/h | 2124m | 9.7m/s | 0°C | 0% | 0hPa | 0V | 00:00:00 | 00:00:00 | 00:00:00 | |
| AKAW68 | 2026-09-05 11:20:32 | 50.02818 | 20.96780 | 95° | 38km/h | 2105m | 9.1m/s | 0°C | 0% | 0hPa | 0V | 00:00:00 | 00:00:00 | 00:00:00 | |
| SQ9PSP-11 | 2026-09-05 11:20:18 | 50.02776 | 20.96551 | 89° | 29km/h | 1971m | 7.8m/s | 0°C | 0% | 0hPa | 0V | 00:00:00 | 00:00:00 | 00:00:00 | |
| AKAW68 | 2026-09-05 11:20:12 | 50.02759 | 20.96456 | 52° | 38km/h | 1911m | 7.2m/s | 0°C | 0% | 0hPa | 0V | 00:00:00 | 00:00:00 | 00:00:00 | |
| SQ9PSP-11 | 2026-09-05 11:19:12 | 50.02646 | 20.95766 | 84° | 29km/h | 1396m | 6.9m/s | 0°C | 0% | 0hPa | 0V | 00:00:00 | 00:00:00 | 00:00:00 |